<?xml version="1.0" encoding="UTF-8" standalone="no" ?>
<gpx xmlns="http://www.topografix.com/GPX/1/1" xmlns:xsi="http://www.w3.org/2001/XMLSchema-instance" xsi:schemaLocation="http://www.topografix.com/GPX/1/1 http://www.topografix.com/GPX/1/1/gpx.xsd" version="1.1" creator="VisuGPX - https://www.visugpx.com">
  <metadata>
    <name>Transloverienne-25k400m</name>
    <desc><![CDATA[Translovérienne 2017avec un départ du château d'eau sur chemin de la mare saint Lubin]]></desc>
  </metadata>
  <trk>
    <name><![CDATA[Transloverienne-25k400m_1]]></name>
    <trkseg>
      <trkpt lat="49.21415" lon="1.14272">
        <ele>121.680305</ele>
        <time>2017-09-17T07:15:44Z</time>
      </trkpt>
      <trkpt lat="49.2144" lon="1.14273">
        <ele>121.816658</ele>
        <time>2017-09-17T07:15:50Z</time>
      </trkpt>
      <trkpt lat="49.21462" lon="1.1425">
        <ele>121.853806</ele>
        <time>2017-09-17T07:15:56Z</time>
      </trkpt>
      <trkpt lat="49.2148" lon="1.142">
        <ele>121.72847</ele>
        <time>2017-09-17T07:16:04Z</time>
      </trkpt>
      <trkpt lat="49.21513" lon="1.14108">
        <ele>122.070976</ele>
        <time>2017-09-17T07:16:18Z</time>
      </trkpt>
      <trkpt lat="49.21527" lon="1.14068">
        <ele>122.294456</ele>
        <time>2017-09-17T07:16:24Z</time>
      </trkpt>
      <trkpt lat="49.21542" lon="1.14026">
        <ele>122.43428</ele>
        <time>2017-09-17T07:16:30Z</time>
      </trkpt>
      <trkpt lat="49.21565" lon="1.13966">
        <ele>122.554962</ele>
        <time>2017-09-17T07:16:38Z</time>
      </trkpt>
      <trkpt lat="49.21613" lon="1.13846">
        <ele>121.885223</ele>
        <time>2017-09-17T07:16:52Z</time>
      </trkpt>
      <trkpt lat="49.21642" lon="1.13794">
        <ele>121.045219</ele>
        <time>2017-09-17T07:16:58Z</time>
      </trkpt>
      <trkpt lat="49.21671" lon="1.13749">
        <ele>120.2836</ele>
        <time>2017-09-17T07:17:04Z</time>
      </trkpt>
      <trkpt lat="49.21713" lon="1.13697">
        <ele>118.96109</ele>
        <time>2017-09-17T07:17:12Z</time>
      </trkpt>
      <trkpt lat="49.21786" lon="1.13626">
        <ele>118.11425</ele>
        <time>2017-09-17T07:17:26Z</time>
      </trkpt>
      <trkpt lat="49.2181" lon="1.13599">
        <ele>118.599167</ele>
        <time>2017-09-17T07:17:32Z</time>
      </trkpt>
      <trkpt lat="49.21832" lon="1.13575">
        <ele>119.117012</ele>
        <time>2017-09-17T07:17:38Z</time>
      </trkpt>
      <trkpt lat="49.21861" lon="1.13539">
        <ele>119.790756</ele>
        <time>2017-09-17T07:17:46Z</time>
      </trkpt>
      <trkpt lat="49.21911" lon="1.13472">
        <ele>120.440994</ele>
        <time>2017-09-17T07:17:58Z</time>
      </trkpt>
      <trkpt lat="49.2195" lon="1.13417">
        <ele>120.33429</ele>
        <time>2017-09-17T07:18:06Z</time>
      </trkpt>
      <trkpt lat="49.21981" lon="1.13376">
        <ele>120.104553</ele>
        <time>2017-09-17T07:18:12Z</time>
      </trkpt>
      <trkpt lat="49.22024" lon="1.1332">
        <ele>119.431633</ele>
        <time>2017-09-17T07:18:20Z</time>
      </trkpt>
      <trkpt lat="49.22098" lon="1.13248">
        <ele>117.690605</ele>
        <time>2017-09-17T07:18:32Z</time>
      </trkpt>
      <trkpt lat="49.22152" lon="1.13208">
        <ele>115.297501</ele>
        <time>2017-09-17T07:18:40Z</time>
      </trkpt>
      <trkpt lat="49.22191" lon="1.13178">
        <ele>112.950096</ele>
        <time>2017-09-17T07:18:46Z</time>
      </trkpt>
      <trkpt lat="49.2222" lon="1.13152">
        <ele>109.917023</ele>
        <time>2017-09-17T07:18:54Z</time>
      </trkpt>
      <trkpt lat="49.22229" lon="1.13116">
        <ele>108.169334</ele>
        <time>2017-09-17T07:19:06Z</time>
      </trkpt>
      <trkpt lat="49.22225" lon="1.13072">
        <ele>107.88578</ele>
        <time>2017-09-17T07:19:14Z</time>
      </trkpt>
      <trkpt lat="49.22216" lon="1.13037">
        <ele>108.037918</ele>
        <time>2017-09-17T07:19:20Z</time>
      </trkpt>
      <trkpt lat="49.22207" lon="1.13">
        <ele>108.357689</ele>
        <time>2017-09-17T07:19:28Z</time>
      </trkpt>
      <trkpt lat="49.22201" lon="1.12976">
        <ele>109.032677</ele>
        <time>2017-09-17T07:19:40Z</time>
      </trkpt>
      <trkpt lat="49.22193" lon="1.12935">
        <ele>109.603004</ele>
        <time>2017-09-17T07:19:48Z</time>
      </trkpt>
      <trkpt lat="49.22187" lon="1.12906">
        <ele>109.758026</ele>
        <time>2017-09-17T07:19:54Z</time>
      </trkpt>
      <trkpt lat="49.22179" lon="1.12869">
        <ele>109.858253</ele>
        <time>2017-09-17T07:20:02Z</time>
      </trkpt>
      <trkpt lat="49.22175" lon="1.12806">
        <ele>110.495201</ele>
        <time>2017-09-17T07:20:14Z</time>
      </trkpt>
      <trkpt lat="49.22186" lon="1.12742">
        <ele>109.876869</ele>
        <time>2017-09-17T07:20:22Z</time>
      </trkpt>
      <trkpt lat="49.22181" lon="1.12704">
        <ele>109.458229</ele>
        <time>2017-09-17T07:20:28Z</time>
      </trkpt>
      <trkpt lat="49.22179" lon="1.12664">
        <ele>109.979736</ele>
        <time>2017-09-17T07:20:34Z</time>
      </trkpt>
      <trkpt lat="49.22173" lon="1.1258">
        <ele>114.27256</ele>
        <time>2017-09-17T07:20:48Z</time>
      </trkpt>
      <trkpt lat="49.22173" lon="1.12533">
        <ele>115.625473</ele>
        <time>2017-09-17T07:20:56Z</time>
      </trkpt>
      <trkpt lat="49.22171" lon="1.12495">
        <ele>116.290306</ele>
        <time>2017-09-17T07:21:02Z</time>
      </trkpt>
      <trkpt lat="49.22171" lon="1.1246">
        <ele>116.962646</ele>
        <time>2017-09-17T07:21:08Z</time>
      </trkpt>
      <trkpt lat="49.22177" lon="1.12371">
        <ele>118.325226</ele>
        <time>2017-09-17T07:21:22Z</time>
      </trkpt>
      <trkpt lat="49.22184" lon="1.12327">
        <ele>118.837585</ele>
        <time>2017-09-17T07:21:30Z</time>
      </trkpt>
      <trkpt lat="49.22189" lon="1.12293">
        <ele>119.236328</ele>
        <time>2017-09-17T07:21:36Z</time>
      </trkpt>
      <trkpt lat="49.22194" lon="1.12257">
        <ele>119.588982</ele>
        <time>2017-09-17T07:21:42Z</time>
      </trkpt>
      <trkpt lat="49.22207" lon="1.12178">
        <ele>120.996796</ele>
        <time>2017-09-17T07:21:56Z</time>
      </trkpt>
      <trkpt lat="49.22215" lon="1.12131">
        <ele>121.784821</ele>
        <time>2017-09-17T07:22:04Z</time>
      </trkpt>
      <trkpt lat="49.2222" lon="1.12098">
        <ele>122.449089</ele>
        <time>2017-09-17T07:22:10Z</time>
      </trkpt>
      <trkpt lat="49.22224" lon="1.12063">
        <ele>122.807144</ele>
        <time>2017-09-17T07:22:16Z</time>
      </trkpt>
      <trkpt lat="49.22237" lon="1.11988">
        <ele>123.749275</ele>
        <time>2017-09-17T07:22:30Z</time>
      </trkpt>
      <trkpt lat="49.22241" lon="1.1195">
        <ele>124.243118</ele>
        <time>2017-09-17T07:22:36Z</time>
      </trkpt>
      <trkpt lat="49.22269" lon="1.11929">
        <ele>124.879166</ele>
        <time>2017-09-17T07:22:44Z</time>
      </trkpt>
      <trkpt lat="49.22292" lon="1.11915">
        <ele>125.427307</ele>
        <time>2017-09-17T07:22:50Z</time>
      </trkpt>
      <trkpt lat="49.22341" lon="1.11854">
        <ele>125.919174</ele>
        <time>2017-09-17T07:23:04Z</time>
      </trkpt>
      <trkpt lat="49.22361" lon="1.11816">
        <ele>125.825752</ele>
        <time>2017-09-17T07:23:10Z</time>
      </trkpt>
      <trkpt lat="49.22397" lon="1.11762">
        <ele>125.030518</ele>
        <time>2017-09-17T07:23:18Z</time>
      </trkpt>
      <trkpt lat="49.2244" lon="1.1171">
        <ele>123.185028</ele>
        <time>2017-09-17T07:23:24Z</time>
      </trkpt>
      <trkpt lat="49.22553" lon="1.11564">
        <ele>113.865074</ele>
        <time>2017-09-17T07:23:38Z</time>
      </trkpt>
      <trkpt lat="49.22601" lon="1.11526">
        <ele>107.686546</ele>
        <time>2017-09-17T07:23:44Z</time>
      </trkpt>
      <trkpt lat="49.22658" lon="1.11554">
        <ele>97.751785</ele>
        <time>2017-09-17T07:23:52Z</time>
      </trkpt>
      <trkpt lat="49.22667" lon="1.11613">
        <ele>90.181488</ele>
        <time>2017-09-17T07:23:58Z</time>
      </trkpt>
      <trkpt lat="49.2267" lon="1.11806">
        <ele>77.955994</ele>
        <time>2017-09-17T07:24:12Z</time>
      </trkpt>
      <trkpt lat="49.22689" lon="1.11882">
        <ele>75.068359</ele>
        <time>2017-09-17T07:24:18Z</time>
      </trkpt>
      <trkpt lat="49.22718" lon="1.11995">
        <ele>71.867249</ele>
        <time>2017-09-17T07:24:26Z</time>
      </trkpt>
      <trkpt lat="49.22722" lon="1.12068">
        <ele>68.754677</ele>
        <time>2017-09-17T07:24:32Z</time>
      </trkpt>
      <trkpt lat="49.22744" lon="1.12199">
        <ele>64.541481</ele>
        <time>2017-09-17T07:24:46Z</time>
      </trkpt>
      <trkpt lat="49.22773" lon="1.1225">
        <ele>63.724495</ele>
        <time>2017-09-17T07:24:52Z</time>
      </trkpt>
      <trkpt lat="49.22815" lon="1.12308">
        <ele>62.770554</ele>
        <time>2017-09-17T07:25:00Z</time>
      </trkpt>
      <trkpt lat="49.22836" lon="1.12326">
        <ele>62.018028</ele>
        <time>2017-09-17T07:25:06Z</time>
      </trkpt>
      <trkpt lat="49.22825" lon="1.12379">
        <ele>60.679092</ele>
        <time>2017-09-17T07:25:20Z</time>
      </trkpt>
      <trkpt lat="49.22823" lon="1.12389">
        <ele>62.715721</ele>
        <time>2017-09-17T07:25:33Z</time>
      </trkpt>
      <trkpt lat="49.22821" lon="1.124">
        <ele>64.906898</ele>
        <time>2017-09-17T07:25:41Z</time>
      </trkpt>
      <trkpt lat="49.22822" lon="1.1241">
        <ele>66.612343</ele>
        <time>2017-09-17T07:25:49Z</time>
      </trkpt>
      <trkpt lat="49.22818" lon="1.12427">
        <ele>69.483788</ele>
        <time>2017-09-17T07:26:05Z</time>
      </trkpt>
      <trkpt lat="49.22817" lon="1.12434">
        <ele>70.766922</ele>
        <time>2017-09-17T07:26:11Z</time>
      </trkpt>
      <trkpt lat="49.22816" lon="1.12446">
        <ele>72.253929</ele>
        <time>2017-09-17T07:26:19Z</time>
      </trkpt>
      <trkpt lat="49.22815" lon="1.12461">
        <ele>74.661209</ele>
        <time>2017-09-17T07:26:31Z</time>
      </trkpt>
      <trkpt lat="49.22814" lon="1.12482">
        <ele>77.396454</ele>
        <time>2017-09-17T07:26:47Z</time>
      </trkpt>
      <trkpt lat="49.22814" lon="1.12496">
        <ele>79.064888</ele>
        <time>2017-09-17T07:26:57Z</time>
      </trkpt>
      <trkpt lat="49.22813" lon="1.12511">
        <ele>80.730324</ele>
        <time>2017-09-17T07:27:07Z</time>
      </trkpt>
      <trkpt lat="49.22813" lon="1.1252">
        <ele>81.761375</ele>
        <time>2017-09-17T07:27:13Z</time>
      </trkpt>
      <trkpt lat="49.22811" lon="1.12546">
        <ele>84.321701</ele>
        <time>2017-09-17T07:27:29Z</time>
      </trkpt>
      <trkpt lat="49.22809" lon="1.12556">
        <ele>85.136993</ele>
        <time>2017-09-17T07:27:35Z</time>
      </trkpt>
      <trkpt lat="49.22809" lon="1.12568">
        <ele>86.089798</ele>
        <time>2017-09-17T07:27:41Z</time>
      </trkpt>
      <trkpt lat="49.22808" lon="1.12583">
        <ele>86.898102</ele>
        <time>2017-09-17T07:27:49Z</time>
      </trkpt>
      <trkpt lat="49.22804" lon="1.12634">
        <ele>86.929314</ele>
        <time>2017-09-17T07:28:11Z</time>
      </trkpt>
      <trkpt lat="49.22802" lon="1.12669">
        <ele>86.642601</ele>
        <time>2017-09-17T07:28:17Z</time>
      </trkpt>
      <trkpt lat="49.228" lon="1.12701">
        <ele>86.703728</ele>
        <time>2017-09-17T07:28:23Z</time>
      </trkpt>
      <trkpt lat="49.22797" lon="1.12739">
        <ele>87.474815</ele>
        <time>2017-09-17T07:28:31Z</time>
      </trkpt>
      <trkpt lat="49.22792" lon="1.12805">
        <ele>89.414589</ele>
        <time>2017-09-17T07:28:45Z</time>
      </trkpt>
      <trkpt lat="49.2279" lon="1.12834">
        <ele>90.185707</ele>
        <time>2017-09-17T07:28:51Z</time>
      </trkpt>
      <trkpt lat="49.22788" lon="1.12862">
        <ele>90.875923</ele>
        <time>2017-09-17T07:28:57Z</time>
      </trkpt>
      <trkpt lat="49.22783" lon="1.12897">
        <ele>91.894936</ele>
        <time>2017-09-17T07:29:05Z</time>
      </trkpt>
      <trkpt lat="49.22759" lon="1.1291">
        <ele>93.648247</ele>
        <time>2017-09-17T07:29:19Z</time>
      </trkpt>
      <trkpt lat="49.22743" lon="1.12903">
        <ele>94.323631</ele>
        <time>2017-09-17T07:29:25Z</time>
      </trkpt>
      <trkpt lat="49.22725" lon="1.12895">
        <ele>95.072845</ele>
        <time>2017-09-17T07:29:31Z</time>
      </trkpt>
      <trkpt lat="49.22701" lon="1.12883">
        <ele>96.048157</ele>
        <time>2017-09-17T07:29:39Z</time>
      </trkpt>
      <trkpt lat="49.22665" lon="1.12868">
        <ele>97.352585</ele>
        <time>2017-09-17T07:29:51Z</time>
      </trkpt>
      <trkpt lat="49.22645" lon="1.12859">
        <ele>98.414848</ele>
        <time>2017-09-17T07:29:59Z</time>
      </trkpt>
      <trkpt lat="49.22628" lon="1.12849">
        <ele>99.299873</ele>
        <time>2017-09-17T07:30:05Z</time>
      </trkpt>
      <trkpt lat="49.22608" lon="1.1284">
        <ele>100.494774</ele>
        <time>2017-09-17T07:30:13Z</time>
      </trkpt>
      <trkpt lat="49.22576" lon="1.12827">
        <ele>102.207802</ele>
        <time>2017-09-17T07:30:25Z</time>
      </trkpt>
      <trkpt lat="49.22556" lon="1.1282">
        <ele>103.410149</ele>
        <time>2017-09-17T07:30:33Z</time>
      </trkpt>
      <trkpt lat="49.22538" lon="1.12808">
        <ele>104.285255</ele>
        <time>2017-09-17T07:30:39Z</time>
      </trkpt>
      <trkpt lat="49.22517" lon="1.128">
        <ele>105.703827</ele>
        <time>2017-09-17T07:30:47Z</time>
      </trkpt>
      <trkpt lat="49.22485" lon="1.12788">
        <ele>107.768608</ele>
        <time>2017-09-17T07:30:59Z</time>
      </trkpt>
      <trkpt lat="49.22464" lon="1.12778">
        <ele>108.992546</ele>
        <time>2017-09-17T07:31:07Z</time>
      </trkpt>
      <trkpt lat="49.2245" lon="1.12772">
        <ele>109.910965</ele>
        <time>2017-09-17T07:31:13Z</time>
      </trkpt>
      <trkpt lat="49.2243" lon="1.12761">
        <ele>110.865105</ele>
        <time>2017-09-17T07:31:21Z</time>
      </trkpt>
      <trkpt lat="49.22403" lon="1.12748">
        <ele>112.442833</ele>
        <time>2017-09-17T07:31:33Z</time>
      </trkpt>
      <trkpt lat="49.224" lon="1.12777">
        <ele>113.649826</ele>
        <time>2017-09-17T07:31:41Z</time>
      </trkpt>
      <trkpt lat="49.22395" lon="1.12812">
        <ele>114.293129</ele>
        <time>2017-09-17T07:31:47Z</time>
      </trkpt>
      <trkpt lat="49.22389" lon="1.12858">
        <ele>114.770401</ele>
        <time>2017-09-17T07:31:55Z</time>
      </trkpt>
      <trkpt lat="49.2238" lon="1.12926">
        <ele>114.508392</ele>
        <time>2017-09-17T07:32:07Z</time>
      </trkpt>
      <trkpt lat="49.22371" lon="1.12985">
        <ele>113.592087</ele>
        <time>2017-09-17T07:32:15Z</time>
      </trkpt>
      <trkpt lat="49.22382" lon="1.12999">
        <ele>112.582191</ele>
        <time>2017-09-17T07:32:21Z</time>
      </trkpt>
      <trkpt lat="49.22403" lon="1.13008">
        <ele>111.934769</ele>
        <time>2017-09-17T07:32:27Z</time>
      </trkpt>
      <trkpt lat="49.22446" lon="1.13076">
        <ele>111.288429</ele>
        <time>2017-09-17T07:32:41Z</time>
      </trkpt>
      <trkpt lat="49.22456" lon="1.13142">
        <ele>110.326347</ele>
        <time>2017-09-17T07:32:49Z</time>
      </trkpt>
      <trkpt lat="49.22465" lon="1.13191">
        <ele>109.472588</ele>
        <time>2017-09-17T07:32:55Z</time>
      </trkpt>
      <trkpt lat="49.22472" lon="1.13247">
        <ele>108.719292</ele>
        <time>2017-09-17T07:33:01Z</time>
      </trkpt>
      <trkpt lat="49.2248" lon="1.13347">
        <ele>106.850708</ele>
        <time>2017-09-17T07:33:15Z</time>
      </trkpt>
      <trkpt lat="49.22481" lon="1.13404">
        <ele>106.228058</ele>
        <time>2017-09-17T07:33:23Z</time>
      </trkpt>
      <trkpt lat="49.22484" lon="1.13449">
        <ele>106.173752</ele>
        <time>2017-09-17T07:33:29Z</time>
      </trkpt>
      <trkpt lat="49.22486" lon="1.13495">
        <ele>105.790886</ele>
        <time>2017-09-17T07:33:35Z</time>
      </trkpt>
      <trkpt lat="49.22489" lon="1.13589">
        <ele>104.743759</ele>
        <time>2017-09-17T07:33:49Z</time>
      </trkpt>
      <trkpt lat="49.22507" lon="1.1365">
        <ele>103.857399</ele>
        <time>2017-09-17T07:33:57Z</time>
      </trkpt>
      <trkpt lat="49.22514" lon="1.13704">
        <ele>102.650581</ele>
        <time>2017-09-17T07:34:03Z</time>
      </trkpt>
      <trkpt lat="49.22517" lon="1.13764">
        <ele>101.205086</ele>
        <time>2017-09-17T07:34:09Z</time>
      </trkpt>
      <trkpt lat="49.22545" lon="1.13904">
        <ele>95.827805</ele>
        <time>2017-09-17T07:34:23Z</time>
      </trkpt>
      <trkpt lat="49.22559" lon="1.1396">
        <ele>93.318924</ele>
        <time>2017-09-17T07:34:29Z</time>
      </trkpt>
      <trkpt lat="49.22579" lon="1.14031">
        <ele>89.136314</ele>
        <time>2017-09-17T07:34:37Z</time>
      </trkpt>
      <trkpt lat="49.22613" lon="1.1406">
        <ele>86.247833</ele>
        <time>2017-09-17T07:34:43Z</time>
      </trkpt>
      <trkpt lat="49.22704" lon="1.14109">
        <ele>78.106117</ele>
        <time>2017-09-17T07:34:57Z</time>
      </trkpt>
      <trkpt lat="49.22734" lon="1.14126">
        <ele>73.600822</ele>
        <time>2017-09-17T07:35:03Z</time>
      </trkpt>
      <trkpt lat="49.22746" lon="1.14135">
        <ele>66.241402</ele>
        <time>2017-09-17T07:35:16Z</time>
      </trkpt>
      <trkpt lat="49.22756" lon="1.14142">
        <ele>64.283669</ele>
        <time>2017-09-17T07:35:22Z</time>
      </trkpt>
      <trkpt lat="49.22794" lon="1.14157">
        <ele>59.904297</ele>
        <time>2017-09-17T07:35:36Z</time>
      </trkpt>
      <trkpt lat="49.22805" lon="1.14162">
        <ele>57.275032</ele>
        <time>2017-09-17T07:35:42Z</time>
      </trkpt>
      <trkpt lat="49.22816" lon="1.14176">
        <ele>52.587738</ele>
        <time>2017-09-17T07:35:50Z</time>
      </trkpt>
      <trkpt lat="49.22833" lon="1.14182">
        <ele>50.053883</ele>
        <time>2017-09-17T07:35:56Z</time>
      </trkpt>
      <trkpt lat="49.22865" lon="1.1426">
        <ele>43.367619</ele>
        <time>2017-09-17T07:36:10Z</time>
      </trkpt>
      <trkpt lat="49.22884" lon="1.14243">
        <ele>41.379047</ele>
        <time>2017-09-17T07:36:16Z</time>
      </trkpt>
      <trkpt lat="49.22907" lon="1.1421">
        <ele>40.416031</ele>
        <time>2017-09-17T07:36:24Z</time>
      </trkpt>
      <trkpt lat="49.22926" lon="1.14182">
        <ele>40.898979</ele>
        <time>2017-09-17T07:36:30Z</time>
      </trkpt>
      <trkpt lat="49.22988" lon="1.1419">
        <ele>42.551357</ele>
        <time>2017-09-17T07:36:44Z</time>
      </trkpt>
      <trkpt lat="49.23016" lon="1.142">
        <ele>43.377544</ele>
        <time>2017-09-17T07:36:50Z</time>
      </trkpt>
      <trkpt lat="49.2306" lon="1.14198">
        <ele>44.24015</ele>
        <time>2017-09-17T07:36:58Z</time>
      </trkpt>
      <trkpt lat="49.23089" lon="1.14179">
        <ele>44.311699</ele>
        <time>2017-09-17T07:37:04Z</time>
      </trkpt>
      <trkpt lat="49.23154" lon="1.14138">
        <ele>44.064022</ele>
        <time>2017-09-17T07:37:18Z</time>
      </trkpt>
      <trkpt lat="49.23175" lon="1.14105">
        <ele>43.924095</ele>
        <time>2017-09-17T07:37:24Z</time>
      </trkpt>
      <trkpt lat="49.23215" lon="1.1405">
        <ele>43.684696</ele>
        <time>2017-09-17T07:37:32Z</time>
      </trkpt>
      <trkpt lat="49.23226" lon="1.13991">
        <ele>42.999409</ele>
        <time>2017-09-17T07:37:38Z</time>
      </trkpt>
      <trkpt lat="49.23217" lon="1.13864">
        <ele>42.069611</ele>
        <time>2017-09-17T07:37:52Z</time>
      </trkpt>
      <trkpt lat="49.23206" lon="1.13821">
        <ele>42.12178</ele>
        <time>2017-09-17T07:37:58Z</time>
      </trkpt>
      <trkpt lat="49.2319" lon="1.13765">
        <ele>42.421181</ele>
        <time>2017-09-17T07:38:06Z</time>
      </trkpt>
      <trkpt lat="49.2318" lon="1.13723">
        <ele>42.794037</ele>
        <time>2017-09-17T07:38:12Z</time>
      </trkpt>
      <trkpt lat="49.23154" lon="1.13624">
        <ele>43.710094</ele>
        <time>2017-09-17T07:38:26Z</time>
      </trkpt>
      <trkpt lat="49.23142" lon="1.13583">
        <ele>43.971428</ele>
        <time>2017-09-17T07:38:32Z</time>
      </trkpt>
      <trkpt lat="49.23127" lon="1.13527">
        <ele>44.412025</ele>
        <time>2017-09-17T07:38:40Z</time>
      </trkpt>
      <trkpt lat="49.23117" lon="1.13485">
        <ele>44.461773</ele>
        <time>2017-09-17T07:38:46Z</time>
      </trkpt>
      <trkpt lat="49.23104" lon="1.13388">
        <ele>44.891964</ele>
        <time>2017-09-17T07:39:00Z</time>
      </trkpt>
      <trkpt lat="49.23095" lon="1.13348">
        <ele>45.256222</ele>
        <time>2017-09-17T07:39:06Z</time>
      </trkpt>
      <trkpt lat="49.23101" lon="1.13302">
        <ele>45.78566</ele>
        <time>2017-09-17T07:39:12Z</time>
      </trkpt>
      <trkpt lat="49.23117" lon="1.13253">
        <ele>46.169968</ele>
        <time>2017-09-17T07:39:20Z</time>
      </trkpt>
      <trkpt lat="49.23127" lon="1.13171">
        <ele>47.105881</ele>
        <time>2017-09-17T07:39:34Z</time>
      </trkpt>
      <trkpt lat="49.23129" lon="1.13133">
        <ele>47.748344</ele>
        <time>2017-09-17T07:39:40Z</time>
      </trkpt>
      <trkpt lat="49.23124" lon="1.13096">
        <ele>48.186943</ele>
        <time>2017-09-17T07:39:46Z</time>
      </trkpt>
      <trkpt lat="49.23102" lon="1.1307">
        <ele>48.872585</ele>
        <time>2017-09-17T07:39:54Z</time>
      </trkpt>
      <trkpt lat="49.23129" lon="1.13079">
        <ele>48.354954</ele>
        <time>2017-09-17T07:40:12Z</time>
      </trkpt>
      <trkpt lat="49.23142" lon="1.13079">
        <ele>47.42347</ele>
        <time>2017-09-17T07:40:24Z</time>
      </trkpt>
      <trkpt lat="49.23152" lon="1.13084">
        <ele>47.662979</ele>
        <time>2017-09-17T07:40:30Z</time>
      </trkpt>
      <trkpt lat="49.23163" lon="1.13089">
        <ele>48.115162</ele>
        <time>2017-09-17T07:40:38Z</time>
      </trkpt>
      <trkpt lat="49.23189" lon="1.131">
        <ele>50.457352</ele>
        <time>2017-09-17T07:41:04Z</time>
      </trkpt>
      <trkpt lat="49.23193" lon="1.13103">
        <ele>51.811325</ele>
        <time>2017-09-17T07:41:13Z</time>
      </trkpt>
      <trkpt lat="49.23197" lon="1.13107">
        <ele>52.486752</ele>
        <time>2017-09-17T07:41:19Z</time>
      </trkpt>
      <trkpt lat="49.23206" lon="1.1311">
        <ele>55.604336</ele>
        <time>2017-09-17T07:41:35Z</time>
      </trkpt>
      <trkpt lat="49.23222" lon="1.13116">
        <ele>57.358685</ele>
        <time>2017-09-17T07:41:47Z</time>
      </trkpt>
      <trkpt lat="49.23235" lon="1.13121">
        <ele>58.286354</ele>
        <time>2017-09-17T07:42:02Z</time>
      </trkpt>
      <trkpt lat="49.2325" lon="1.1313">
        <ele>57.398941</ele>
        <time>2017-09-17T07:42:08Z</time>
      </trkpt>
      <trkpt lat="49.23271" lon="1.13144">
        <ele>56.160179</ele>
        <time>2017-09-17T07:42:16Z</time>
      </trkpt>
      <trkpt lat="49.23284" lon="1.13147">
        <ele>57.071331</ele>
        <time>2017-09-17T07:42:34Z</time>
      </trkpt>
      <trkpt lat="49.23297" lon="1.13151">
        <ele>62.004688</ele>
        <time>2017-09-17T07:42:56Z</time>
      </trkpt>
      <trkpt lat="49.23303" lon="1.13155">
        <ele>63.508865</ele>
        <time>2017-09-17T07:43:04Z</time>
      </trkpt>
      <trkpt lat="49.23312" lon="1.13158">
        <ele>65.833099</ele>
        <time>2017-09-17T07:43:18Z</time>
      </trkpt>
      <trkpt lat="49.23324" lon="1.13164">
        <ele>68.392776</ele>
        <time>2017-09-17T07:43:32Z</time>
      </trkpt>
      <trkpt lat="49.23344" lon="1.13171">
        <ele>74.28363</ele>
        <time>2017-09-17T07:44:06Z</time>
      </trkpt>
      <trkpt lat="49.23348" lon="1.13165">
        <ele>75.440468</ele>
        <time>2017-09-17T07:44:12Z</time>
      </trkpt>
      <trkpt lat="49.2335" lon="1.13147">
        <ele>77.210648</ele>
        <time>2017-09-17T07:44:28Z</time>
      </trkpt>
      <trkpt lat="49.23357" lon="1.13112">
        <ele>78.01487</ele>
        <time>2017-09-17T07:44:40Z</time>
      </trkpt>
      <trkpt lat="49.23363" lon="1.13087">
        <ele>79.08535</ele>
        <time>2017-09-17T07:44:48Z</time>
      </trkpt>
      <trkpt lat="49.23368" lon="1.13071">
        <ele>80.134338</ele>
        <time>2017-09-17T07:44:54Z</time>
      </trkpt>
      <trkpt lat="49.23374" lon="1.13043">
        <ele>81.227196</ele>
        <time>2017-09-17T07:45:02Z</time>
      </trkpt>
      <trkpt lat="49.23386" lon="1.12988">
        <ele>82.042084</ele>
        <time>2017-09-17T07:45:14Z</time>
      </trkpt>
      <trkpt lat="49.23396" lon="1.12942">
        <ele>81.961403</ele>
        <time>2017-09-17T07:45:22Z</time>
      </trkpt>
      <trkpt lat="49.23403" lon="1.12901">
        <ele>81.138969</ele>
        <time>2017-09-17T07:45:28Z</time>
      </trkpt>
      <trkpt lat="49.23411" lon="1.12861">
        <ele>80.269913</ele>
        <time>2017-09-17T07:45:34Z</time>
      </trkpt>
      <trkpt lat="49.23433" lon="1.12759">
        <ele>78.314056</ele>
        <time>2017-09-17T07:45:48Z</time>
      </trkpt>
      <trkpt lat="49.2343" lon="1.12769">
        <ele>78.418701</ele>
        <time>2017-09-17T07:45:56Z</time>
      </trkpt>
      <trkpt lat="49.23406" lon="1.12814">
        <ele>77.944046</ele>
        <time>2017-09-17T07:46:02Z</time>
      </trkpt>
      <trkpt lat="49.23374" lon="1.12867">
        <ele>76.572823</ele>
        <time>2017-09-17T07:46:08Z</time>
      </trkpt>
      <trkpt lat="49.23311" lon="1.1292">
        <ele>69.525299</ele>
        <time>2017-09-17T07:46:22Z</time>
      </trkpt>
      <trkpt lat="49.23275" lon="1.12918">
        <ele>65.1493</ele>
        <time>2017-09-17T07:46:30Z</time>
      </trkpt>
      <trkpt lat="49.23271" lon="1.12886">
        <ele>62.985195</ele>
        <time>2017-09-17T07:46:36Z</time>
      </trkpt>
      <trkpt lat="49.23272" lon="1.12851">
        <ele>61.672142</ele>
        <time>2017-09-17T07:46:42Z</time>
      </trkpt>
      <trkpt lat="49.23278" lon="1.12763">
        <ele>62.185402</ele>
        <time>2017-09-17T07:46:56Z</time>
      </trkpt>
      <trkpt lat="49.2329" lon="1.12721">
        <ele>63.28656</ele>
        <time>2017-09-17T07:47:04Z</time>
      </trkpt>
      <trkpt lat="49.23298" lon="1.12689">
        <ele>64.090401</ele>
        <time>2017-09-17T07:47:10Z</time>
      </trkpt>
      <trkpt lat="49.23303" lon="1.12656">
        <ele>65.13282</ele>
        <time>2017-09-17T07:47:16Z</time>
      </trkpt>
      <trkpt lat="49.23323" lon="1.12583">
        <ele>66.695328</ele>
        <time>2017-09-17T07:47:30Z</time>
      </trkpt>
      <trkpt lat="49.23334" lon="1.12556">
        <ele>67.303757</ele>
        <time>2017-09-17T07:47:36Z</time>
      </trkpt>
      <trkpt lat="49.23346" lon="1.12515">
        <ele>68.257378</ele>
        <time>2017-09-17T07:47:44Z</time>
      </trkpt>
      <trkpt lat="49.23356" lon="1.12486">
        <ele>68.889641</ele>
        <time>2017-09-17T07:47:50Z</time>
      </trkpt>
      <trkpt lat="49.23338" lon="1.12467">
        <ele>69.80043</ele>
        <time>2017-09-17T07:48:04Z</time>
      </trkpt>
      <trkpt lat="49.23324" lon="1.12469">
        <ele>70.19239</ele>
        <time>2017-09-17T07:48:14Z</time>
      </trkpt>
      <trkpt lat="49.23302" lon="1.12465">
        <ele>75.159348</ele>
        <time>2017-09-17T07:48:45Z</time>
      </trkpt>
      <trkpt lat="49.23283" lon="1.12462">
        <ele>82.813194</ele>
        <time>2017-09-17T07:49:26Z</time>
      </trkpt>
      <trkpt lat="49.23249" lon="1.12437">
        <ele>93.347061</ele>
        <time>2017-09-17T07:50:32Z</time>
      </trkpt>
      <trkpt lat="49.23255" lon="1.12425">
        <ele>93.705315</ele>
        <time>2017-09-17T07:50:38Z</time>
      </trkpt>
      <trkpt lat="49.2326" lon="1.12403">
        <ele>94.136337</ele>
        <time>2017-09-17T07:50:46Z</time>
      </trkpt>
      <trkpt lat="49.23265" lon="1.12383">
        <ele>94.937408</ele>
        <time>2017-09-17T07:50:52Z</time>
      </trkpt>
      <trkpt lat="49.23276" lon="1.12336">
        <ele>96.228485</ele>
        <time>2017-09-17T07:51:06Z</time>
      </trkpt>
      <trkpt lat="49.23278" lon="1.12312">
        <ele>96.426994</ele>
        <time>2017-09-17T07:51:12Z</time>
      </trkpt>
      <trkpt lat="49.23286" lon="1.12284">
        <ele>96.4608</ele>
        <time>2017-09-17T07:51:20Z</time>
      </trkpt>
      <trkpt lat="49.23293" lon="1.12263">
        <ele>96.680016</ele>
        <time>2017-09-17T07:51:26Z</time>
      </trkpt>
      <trkpt lat="49.23301" lon="1.12207">
        <ele>97.347191</ele>
        <time>2017-09-17T07:51:40Z</time>
      </trkpt>
      <trkpt lat="49.23304" lon="1.1218">
        <ele>97.740219</ele>
        <time>2017-09-17T07:51:46Z</time>
      </trkpt>
      <trkpt lat="49.23304" lon="1.12147">
        <ele>98.132042</ele>
        <time>2017-09-17T07:51:54Z</time>
      </trkpt>
      <trkpt lat="49.23309" lon="1.12123">
        <ele>98.274864</ele>
        <time>2017-09-17T07:52:00Z</time>
      </trkpt>
      <trkpt lat="49.23323" lon="1.12064">
        <ele>98.646355</ele>
        <time>2017-09-17T07:52:14Z</time>
      </trkpt>
      <trkpt lat="49.23325" lon="1.12032">
        <ele>98.86779</ele>
        <time>2017-09-17T07:52:20Z</time>
      </trkpt>
      <trkpt lat="49.23334" lon="1.11996">
        <ele>99.000816</ele>
        <time>2017-09-17T07:52:28Z</time>
      </trkpt>
      <trkpt lat="49.23335" lon="1.1197">
        <ele>99.252426</ele>
        <time>2017-09-17T07:52:34Z</time>
      </trkpt>
      <trkpt lat="49.23344" lon="1.11905">
        <ele>100.333321</ele>
        <time>2017-09-17T07:52:48Z</time>
      </trkpt>
      <trkpt lat="49.23348" lon="1.11875">
        <ele>100.320374</ele>
        <time>2017-09-17T07:52:54Z</time>
      </trkpt>
      <trkpt lat="49.23356" lon="1.11828">
        <ele>99.647903</ele>
        <time>2017-09-17T07:53:02Z</time>
      </trkpt>
      <trkpt lat="49.2336" lon="1.11773">
        <ele>98.443428</ele>
        <time>2017-09-17T07:53:08Z</time>
      </trkpt>
      <trkpt lat="49.23379" lon="1.11698">
        <ele>93.297371</ele>
        <time>2017-09-17T07:53:22Z</time>
      </trkpt>
      <trkpt lat="49.23393" lon="1.1172">
        <ele>91.86454</ele>
        <time>2017-09-17T07:53:28Z</time>
      </trkpt>
      <trkpt lat="49.23406" lon="1.11766">
        <ele>91.370689</ele>
        <time>2017-09-17T07:53:36Z</time>
      </trkpt>
      <trkpt lat="49.23424" lon="1.11763">
        <ele>91.03479</ele>
        <time>2017-09-17T07:53:42Z</time>
      </trkpt>
      <trkpt lat="49.23449" lon="1.1175">
        <ele>92.659836</ele>
        <time>2017-09-17T07:53:56Z</time>
      </trkpt>
      <trkpt lat="49.2346" lon="1.11746">
        <ele>94.585876</ele>
        <time>2017-09-17T07:54:02Z</time>
      </trkpt>
      <trkpt lat="49.23471" lon="1.11748">
        <ele>96.440384</ele>
        <time>2017-09-17T07:54:08Z</time>
      </trkpt>
      <trkpt lat="49.23481" lon="1.11761">
        <ele>98.589233</ele>
        <time>2017-09-17T07:54:16Z</time>
      </trkpt>
      <trkpt lat="49.23493" lon="1.11799">
        <ele>101.144753</ele>
        <time>2017-09-17T07:54:30Z</time>
      </trkpt>
      <trkpt lat="49.235" lon="1.11819">
        <ele>102.070663</ele>
        <time>2017-09-17T07:54:36Z</time>
      </trkpt>
      <trkpt lat="49.23506" lon="1.11838">
        <ele>102.719337</ele>
        <time>2017-09-17T07:54:42Z</time>
      </trkpt>
      <trkpt lat="49.23517" lon="1.11863">
        <ele>103.635109</ele>
        <time>2017-09-17T07:54:50Z</time>
      </trkpt>
      <trkpt lat="49.23525" lon="1.11911">
        <ele>105.274857</ele>
        <time>2017-09-17T07:55:04Z</time>
      </trkpt>
      <trkpt lat="49.23526" lon="1.11937">
        <ele>105.692085</ele>
        <time>2017-09-17T07:55:10Z</time>
      </trkpt>
      <trkpt lat="49.2353" lon="1.11965">
        <ele>105.946663</ele>
        <time>2017-09-17T07:55:16Z</time>
      </trkpt>
      <trkpt lat="49.23548" lon="1.11993">
        <ele>106.37674</ele>
        <time>2017-09-17T07:55:24Z</time>
      </trkpt>
      <trkpt lat="49.23579" lon="1.12019">
        <ele>108.106003</ele>
        <time>2017-09-17T07:55:38Z</time>
      </trkpt>
      <trkpt lat="49.23593" lon="1.12027">
        <ele>108.936722</ele>
        <time>2017-09-17T07:55:44Z</time>
      </trkpt>
      <trkpt lat="49.23606" lon="1.12042">
        <ele>109.518227</ele>
        <time>2017-09-17T07:55:50Z</time>
      </trkpt>
      <trkpt lat="49.23608" lon="1.12067">
        <ele>109.999428</ele>
        <time>2017-09-17T07:55:58Z</time>
      </trkpt>
      <trkpt lat="49.23602" lon="1.12094">
        <ele>109.508621</ele>
        <time>2017-09-17T07:56:14Z</time>
      </trkpt>
      <trkpt lat="49.23594" lon="1.12132">
        <ele>108.990807</ele>
        <time>2017-09-17T07:56:22Z</time>
      </trkpt>
      <trkpt lat="49.23586" lon="1.12163">
        <ele>108.635704</ele>
        <time>2017-09-17T07:56:28Z</time>
      </trkpt>
      <trkpt lat="49.23577" lon="1.12204">
        <ele>108.394157</ele>
        <time>2017-09-17T07:56:36Z</time>
      </trkpt>
      <trkpt lat="49.23563" lon="1.12268">
        <ele>107.917908</ele>
        <time>2017-09-17T07:56:48Z</time>
      </trkpt>
      <trkpt lat="49.23553" lon="1.12307">
        <ele>107.701675</ele>
        <time>2017-09-17T07:56:56Z</time>
      </trkpt>
      <trkpt lat="49.23546" lon="1.12339">
        <ele>107.478165</ele>
        <time>2017-09-17T07:57:02Z</time>
      </trkpt>
      <trkpt lat="49.23535" lon="1.12385">
        <ele>107.14592</ele>
        <time>2017-09-17T07:57:10Z</time>
      </trkpt>
      <trkpt lat="49.23517" lon="1.12453">
        <ele>105.933029</ele>
        <time>2017-09-17T07:57:22Z</time>
      </trkpt>
      <trkpt lat="49.23511" lon="1.12498">
        <ele>104.469223</ele>
        <time>2017-09-17T07:57:30Z</time>
      </trkpt>
      <trkpt lat="49.23524" lon="1.12501">
        <ele>103.779396</ele>
        <time>2017-09-17T07:57:36Z</time>
      </trkpt>
      <trkpt lat="49.23544" lon="1.12505">
        <ele>103.851334</ele>
        <time>2017-09-17T07:57:44Z</time>
      </trkpt>
      <trkpt lat="49.2358" lon="1.12496">
        <ele>105.350708</ele>
        <time>2017-09-17T07:57:56Z</time>
      </trkpt>
      <trkpt lat="49.23597" lon="1.12471">
        <ele>106.104622</ele>
        <time>2017-09-17T07:58:04Z</time>
      </trkpt>
      <trkpt lat="49.23612" lon="1.12454">
        <ele>106.202667</ele>
        <time>2017-09-17T07:58:10Z</time>
      </trkpt>
      <trkpt lat="49.23634" lon="1.12437">
        <ele>106.622681</ele>
        <time>2017-09-17T07:58:18Z</time>
      </trkpt>
      <trkpt lat="49.23666" lon="1.12414">
        <ele>107.340073</ele>
        <time>2017-09-17T07:58:30Z</time>
      </trkpt>
      <trkpt lat="49.23684" lon="1.12415">
        <ele>107.539742</ele>
        <time>2017-09-17T07:58:38Z</time>
      </trkpt>
      <trkpt lat="49.23692" lon="1.12443">
        <ele>107.978691</ele>
        <time>2017-09-17T07:58:44Z</time>
      </trkpt>
      <trkpt lat="49.23696" lon="1.1248">
        <ele>108.148575</ele>
        <time>2017-09-17T07:58:50Z</time>
      </trkpt>
      <trkpt lat="49.23704" lon="1.12574">
        <ele>108.20343</ele>
        <time>2017-09-17T07:59:04Z</time>
      </trkpt>
      <trkpt lat="49.2371" lon="1.12629">
        <ele>108.23262</ele>
        <time>2017-09-17T07:59:12Z</time>
      </trkpt>
      <trkpt lat="49.23716" lon="1.12673">
        <ele>108.450836</ele>
        <time>2017-09-17T07:59:18Z</time>
      </trkpt>
      <trkpt lat="49.23721" lon="1.12715">
        <ele>108.6129</ele>
        <time>2017-09-17T07:59:24Z</time>
      </trkpt>
      <trkpt lat="49.23728" lon="1.12816">
        <ele>109.231857</ele>
        <time>2017-09-17T07:59:38Z</time>
      </trkpt>
      <trkpt lat="49.23732" lon="1.12866">
        <ele>109.885674</ele>
        <time>2017-09-17T07:59:46Z</time>
      </trkpt>
      <trkpt lat="49.23735" lon="1.12904">
        <ele>110.331779</ele>
        <time>2017-09-17T07:59:52Z</time>
      </trkpt>
      <trkpt lat="49.23737" lon="1.1294">
        <ele>110.666016</ele>
        <time>2017-09-17T07:59:58Z</time>
      </trkpt>
      <trkpt lat="49.23722" lon="1.13029">
        <ele>111.333565</ele>
        <time>2017-09-17T08:00:12Z</time>
      </trkpt>
      <trkpt lat="49.23734" lon="1.13058">
        <ele>111.420822</ele>
        <time>2017-09-17T08:00:20Z</time>
      </trkpt>
      <trkpt lat="49.23753" lon="1.13066">
        <ele>111.228279</ele>
        <time>2017-09-17T08:00:26Z</time>
      </trkpt>
      <trkpt lat="49.23774" lon="1.13076">
        <ele>111.314369</ele>
        <time>2017-09-17T08:00:32Z</time>
      </trkpt>
      <trkpt lat="49.23826" lon="1.13098">
        <ele>111.729408</ele>
        <time>2017-09-17T08:00:46Z</time>
      </trkpt>
      <trkpt lat="49.23847" lon="1.13108">
        <ele>111.819778</ele>
        <time>2017-09-17T08:00:52Z</time>
      </trkpt>
      <trkpt lat="49.23876" lon="1.13124">
        <ele>111.687279</ele>
        <time>2017-09-17T08:01:00Z</time>
      </trkpt>
      <trkpt lat="49.23898" lon="1.13133">
        <ele>111.782471</ele>
        <time>2017-09-17T08:01:06Z</time>
      </trkpt>
      <trkpt lat="49.23943" lon="1.13154">
        <ele>112.425682</ele>
        <time>2017-09-17T08:01:20Z</time>
      </trkpt>
      <trkpt lat="49.23962" lon="1.13162">
        <ele>112.515625</ele>
        <time>2017-09-17T08:01:26Z</time>
      </trkpt>
      <trkpt lat="49.2399" lon="1.13174">
        <ele>112.598114</ele>
        <time>2017-09-17T08:01:34Z</time>
      </trkpt>
      <trkpt lat="49.24007" lon="1.1318">
        <ele>112.893867</ele>
        <time>2017-09-17T08:01:40Z</time>
      </trkpt>
      <trkpt lat="49.24057" lon="1.13205">
        <ele>112.839279</ele>
        <time>2017-09-17T08:01:54Z</time>
      </trkpt>
      <trkpt lat="49.2408" lon="1.13215">
        <ele>112.312645</ele>
        <time>2017-09-17T08:02:00Z</time>
      </trkpt>
      <trkpt lat="49.24114" lon="1.13231">
        <ele>111.453339</ele>
        <time>2017-09-17T08:02:08Z</time>
      </trkpt>
      <trkpt lat="49.2414" lon="1.13243">
        <ele>110.73941</ele>
        <time>2017-09-17T08:02:14Z</time>
      </trkpt>
      <trkpt lat="49.24202" lon="1.13275">
        <ele>108.130829</ele>
        <time>2017-09-17T08:02:28Z</time>
      </trkpt>
      <trkpt lat="49.24228" lon="1.13284">
        <ele>107.105095</ele>
        <time>2017-09-17T08:02:34Z</time>
      </trkpt>
      <trkpt lat="49.24265" lon="1.13299">
        <ele>106.33107</ele>
        <time>2017-09-17T08:02:42Z</time>
      </trkpt>
      <trkpt lat="49.24289" lon="1.13311">
        <ele>105.810547</ele>
        <time>2017-09-17T08:02:48Z</time>
      </trkpt>
      <trkpt lat="49.24324" lon="1.13361">
        <ele>104.601685</ele>
        <time>2017-09-17T08:03:02Z</time>
      </trkpt>
      <trkpt lat="49.24333" lon="1.13402">
        <ele>104.034943</ele>
        <time>2017-09-17T08:03:08Z</time>
      </trkpt>
      <trkpt lat="49.24342" lon="1.13457">
        <ele>102.835861</ele>
        <time>2017-09-17T08:03:16Z</time>
      </trkpt>
      <trkpt lat="49.24348" lon="1.13494">
        <ele>102.14183</ele>
        <time>2017-09-17T08:03:22Z</time>
      </trkpt>
      <trkpt lat="49.24365" lon="1.1358">
        <ele>101.715927</ele>
        <time>2017-09-17T08:03:36Z</time>
      </trkpt>
      <trkpt lat="49.24379" lon="1.13608">
        <ele>101.705215</ele>
        <time>2017-09-17T08:03:42Z</time>
      </trkpt>
      <trkpt lat="49.24386" lon="1.1362">
        <ele>101.207672</ele>
        <time>2017-09-17T08:03:50Z</time>
      </trkpt>
      <trkpt lat="49.24388" lon="1.13633">
        <ele>100.848976</ele>
        <time>2017-09-17T08:03:56Z</time>
      </trkpt>
      <trkpt lat="49.24389" lon="1.13623">
        <ele>100.604225</ele>
        <time>2017-09-17T08:05:06Z</time>
      </trkpt>
      <trkpt lat="49.24395" lon="1.13639">
        <ele>101.444077</ele>
        <time>2017-09-17T08:06:26Z</time>
      </trkpt>
      <trkpt lat="49.24384" lon="1.13634">
        <ele>102.159515</ele>
        <time>2017-09-17T08:07:38Z</time>
      </trkpt>
      <trkpt lat="49.24384" lon="1.13636">
        <ele>102.509239</ele>
        <time>2017-09-17T08:08:55Z</time>
      </trkpt>
      <trkpt lat="49.24377" lon="1.13649">
        <ele>107.965141</ele>
        <time>2017-09-17T08:20:25Z</time>
      </trkpt>
      <trkpt lat="49.24375" lon="1.13669">
        <ele>107.898048</ele>
        <time>2017-09-17T08:20:31Z</time>
      </trkpt>
      <trkpt lat="49.24373" lon="1.13704">
        <ele>107.6464</ele>
        <time>2017-09-17T08:20:39Z</time>
      </trkpt>
      <trkpt lat="49.2437" lon="1.13723">
        <ele>107.609329</ele>
        <time>2017-09-17T08:20:45Z</time>
      </trkpt>
      <trkpt lat="49.2437" lon="1.13787">
        <ele>107.930885</ele>
        <time>2017-09-17T08:20:59Z</time>
      </trkpt>
      <trkpt lat="49.2437" lon="1.13814">
        <ele>108.231041</ele>
        <time>2017-09-17T08:21:05Z</time>
      </trkpt>
      <trkpt lat="49.24368" lon="1.13847">
        <ele>108.450218</ele>
        <time>2017-09-17T08:21:11Z</time>
      </trkpt>
      <trkpt lat="49.24364" lon="1.1389">
        <ele>108.814774</ele>
        <time>2017-09-17T08:21:19Z</time>
      </trkpt>
      <trkpt lat="49.24361" lon="1.13962">
        <ele>109.816864</ele>
        <time>2017-09-17T08:21:33Z</time>
      </trkpt>
      <trkpt lat="49.2436" lon="1.13996">
        <ele>110.392639</ele>
        <time>2017-09-17T08:21:39Z</time>
      </trkpt>
      <trkpt lat="49.24382" lon="1.14003">
        <ele>110.600494</ele>
        <time>2017-09-17T08:21:45Z</time>
      </trkpt>
      <trkpt lat="49.2442" lon="1.14017">
        <ele>110.475845</ele>
        <time>2017-09-17T08:21:53Z</time>
      </trkpt>
      <trkpt lat="49.24508" lon="1.14055">
        <ele>107.951309</ele>
        <time>2017-09-17T08:22:07Z</time>
      </trkpt>
      <trkpt lat="49.24553" lon="1.14075">
        <ele>105.856392</ele>
        <time>2017-09-17T08:22:13Z</time>
      </trkpt>
      <trkpt lat="49.24597" lon="1.14097">
        <ele>103.617065</ele>
        <time>2017-09-17T08:22:19Z</time>
      </trkpt>
      <trkpt lat="49.24634" lon="1.1411">
        <ele>98.45224</ele>
        <time>2017-09-17T08:22:27Z</time>
      </trkpt>
      <trkpt lat="49.24694" lon="1.14141">
        <ele>87.292526</ele>
        <time>2017-09-17T08:22:41Z</time>
      </trkpt>
      <trkpt lat="49.2472" lon="1.14152">
        <ele>82.56179</ele>
        <time>2017-09-17T08:22:47Z</time>
      </trkpt>
      <trkpt lat="49.24721" lon="1.14188">
        <ele>78.353317</ele>
        <time>2017-09-17T08:22:53Z</time>
      </trkpt>
      <trkpt lat="49.24723" lon="1.14231">
        <ele>74.79039</ele>
        <time>2017-09-17T08:23:01Z</time>
      </trkpt>
      <trkpt lat="49.24728" lon="1.14306">
        <ele>73.141403</ele>
        <time>2017-09-17T08:23:13Z</time>
      </trkpt>
      <trkpt lat="49.24733" lon="1.14356">
        <ele>72.91671</ele>
        <time>2017-09-17T08:23:21Z</time>
      </trkpt>
      <trkpt lat="49.24735" lon="1.14397">
        <ele>72.614639</ele>
        <time>2017-09-17T08:23:27Z</time>
      </trkpt>
      <trkpt lat="49.24736" lon="1.1445">
        <ele>72.098373</ele>
        <time>2017-09-17T08:23:35Z</time>
      </trkpt>
      <trkpt lat="49.2475" lon="1.14468">
        <ele>69.366951</ele>
        <time>2017-09-17T08:23:52Z</time>
      </trkpt>
      <trkpt lat="49.2475" lon="1.14504">
        <ele>66.976524</ele>
        <time>2017-09-17T08:24:00Z</time>
      </trkpt>
      <trkpt lat="49.2478" lon="1.14516">
        <ele>64.567886</ele>
        <time>2017-09-17T08:24:06Z</time>
      </trkpt>
      <trkpt lat="49.24829" lon="1.14536">
        <ele>60.644459</ele>
        <time>2017-09-17T08:24:14Z</time>
      </trkpt>
      <trkpt lat="49.24872" lon="1.14558">
        <ele>53.446606</ele>
        <time>2017-09-17T08:24:26Z</time>
      </trkpt>
      <trkpt lat="49.24888" lon="1.14564">
        <ele>50.965248</ele>
        <time>2017-09-17T08:24:34Z</time>
      </trkpt>
      <trkpt lat="49.24905" lon="1.14571">
        <ele>50.494766</ele>
        <time>2017-09-17T08:24:40Z</time>
      </trkpt>
      <trkpt lat="49.24926" lon="1.1459">
        <ele>50.933495</ele>
        <time>2017-09-17T08:24:48Z</time>
      </trkpt>
      <trkpt lat="49.24941" lon="1.14597">
        <ele>53.247898</ele>
        <time>2017-09-17T08:25:00Z</time>
      </trkpt>
      <trkpt lat="49.24951" lon="1.146">
        <ele>55.87846</ele>
        <time>2017-09-17T08:25:08Z</time>
      </trkpt>
      <trkpt lat="49.24958" lon="1.14602">
        <ele>60.222759</ele>
        <time>2017-09-17T08:25:29Z</time>
      </trkpt>
      <trkpt lat="49.24964" lon="1.14607">
        <ele>60.869999</ele>
        <time>2017-09-17T08:25:39Z</time>
      </trkpt>
      <trkpt lat="49.24973" lon="1.1461">
        <ele>62.559093</ele>
        <time>2017-09-17T08:25:51Z</time>
      </trkpt>
      <trkpt lat="49.24978" lon="1.14613">
        <ele>64.885887</ele>
        <time>2017-09-17T08:26:03Z</time>
      </trkpt>
      <trkpt lat="49.24985" lon="1.14617">
        <ele>66.512199</ele>
        <time>2017-09-17T08:26:13Z</time>
      </trkpt>
      <trkpt lat="49.24993" lon="1.1462">
        <ele>69.158623</ele>
        <time>2017-09-17T08:26:29Z</time>
      </trkpt>
      <trkpt lat="49.25005" lon="1.14625">
        <ele>73.204865</ele>
        <time>2017-09-17T08:26:51Z</time>
      </trkpt>
      <trkpt lat="49.25026" lon="1.14632">
        <ele>79.954681</ele>
        <time>2017-09-17T08:27:31Z</time>
      </trkpt>
      <trkpt lat="49.25037" lon="1.14637">
        <ele>82.609398</ele>
        <time>2017-09-17T08:27:47Z</time>
      </trkpt>
      <trkpt lat="49.25046" lon="1.14641">
        <ele>85.592163</ele>
        <time>2017-09-17T08:28:03Z</time>
      </trkpt>
      <trkpt lat="49.25065" lon="1.14649">
        <ele>90.752243</ele>
        <time>2017-09-17T08:28:31Z</time>
      </trkpt>
      <trkpt lat="49.25076" lon="1.14653">
        <ele>94.10891</ele>
        <time>2017-09-17T08:28:49Z</time>
      </trkpt>
      <trkpt lat="49.25085" lon="1.14659">
        <ele>96.024597</ele>
        <time>2017-09-17T08:29:01Z</time>
      </trkpt>
      <trkpt lat="49.2509" lon="1.14662">
        <ele>97.178688</ele>
        <time>2017-09-17T08:29:09Z</time>
      </trkpt>
      <trkpt lat="49.25089" lon="1.14698">
        <ele>99.612488</ele>
        <time>2017-09-17T08:32:20Z</time>
      </trkpt>
      <trkpt lat="49.2509" lon="1.14729">
        <ele>99.70359</ele>
        <time>2017-09-17T08:32:28Z</time>
      </trkpt>
      <trkpt lat="49.25084" lon="1.14758">
        <ele>99.422699</ele>
        <time>2017-09-17T08:32:34Z</time>
      </trkpt>
      <trkpt lat="49.25078" lon="1.1479">
        <ele>99.407776</ele>
        <time>2017-09-17T08:32:40Z</time>
      </trkpt>
      <trkpt lat="49.25087" lon="1.14851">
        <ele>99.184761</ele>
        <time>2017-09-17T08:32:54Z</time>
      </trkpt>
      <trkpt lat="49.25095" lon="1.14875">
        <ele>99.489632</ele>
        <time>2017-09-17T08:33:00Z</time>
      </trkpt>
      <trkpt lat="49.25101" lon="1.14909">
        <ele>100.296028</ele>
        <time>2017-09-17T08:33:08Z</time>
      </trkpt>
      <trkpt lat="49.25106" lon="1.14934">
        <ele>100.70842</ele>
        <time>2017-09-17T08:33:14Z</time>
      </trkpt>
      <trkpt lat="49.25116" lon="1.15">
        <ele>101.50618</ele>
        <time>2017-09-17T08:33:28Z</time>
      </trkpt>
      <trkpt lat="49.25119" lon="1.15026">
        <ele>101.813156</ele>
        <time>2017-09-17T08:33:34Z</time>
      </trkpt>
      <trkpt lat="49.25117" lon="1.15063">
        <ele>102.003487</ele>
        <time>2017-09-17T08:33:42Z</time>
      </trkpt>
      <trkpt lat="49.25114" lon="1.15089">
        <ele>102.034149</ele>
        <time>2017-09-17T08:33:48Z</time>
      </trkpt>
      <trkpt lat="49.25114" lon="1.15151">
        <ele>102.156433</ele>
        <time>2017-09-17T08:34:02Z</time>
      </trkpt>
      <trkpt lat="49.25113" lon="1.15179">
        <ele>102.404991</ele>
        <time>2017-09-17T08:34:08Z</time>
      </trkpt>
      <trkpt lat="49.25116" lon="1.15217">
        <ele>102.615768</ele>
        <time>2017-09-17T08:34:16Z</time>
      </trkpt>
      <trkpt lat="49.25119" lon="1.15247">
        <ele>102.89698</ele>
        <time>2017-09-17T08:34:22Z</time>
      </trkpt>
      <trkpt lat="49.25099" lon="1.15311">
        <ele>103.155716</ele>
        <time>2017-09-17T08:34:36Z</time>
      </trkpt>
      <trkpt lat="49.25087" lon="1.15339">
        <ele>103.041817</ele>
        <time>2017-09-17T08:34:42Z</time>
      </trkpt>
      <trkpt lat="49.25071" lon="1.1537">
        <ele>102.749535</ele>
        <time>2017-09-17T08:34:50Z</time>
      </trkpt>
      <trkpt lat="49.25059" lon="1.15394">
        <ele>102.475197</ele>
        <time>2017-09-17T08:34:56Z</time>
      </trkpt>
      <trkpt lat="49.25039" lon="1.15453">
        <ele>102.159279</ele>
        <time>2017-09-17T08:35:10Z</time>
      </trkpt>
      <trkpt lat="49.25029" lon="1.15482">
        <ele>101.992493</ele>
        <time>2017-09-17T08:35:16Z</time>
      </trkpt>
      <trkpt lat="49.25014" lon="1.15513">
        <ele>101.931801</ele>
        <time>2017-09-17T08:35:24Z</time>
      </trkpt>
      <trkpt lat="49.24998" lon="1.15535">
        <ele>101.835007</ele>
        <time>2017-09-17T08:35:30Z</time>
      </trkpt>
      <trkpt lat="49.24962" lon="1.15577">
        <ele>102.109932</ele>
        <time>2017-09-17T08:35:44Z</time>
      </trkpt>
      <trkpt lat="49.24942" lon="1.15593">
        <ele>102.15683</ele>
        <time>2017-09-17T08:35:50Z</time>
      </trkpt>
      <trkpt lat="49.2492" lon="1.15612">
        <ele>101.973526</ele>
        <time>2017-09-17T08:35:58Z</time>
      </trkpt>
      <trkpt lat="49.249" lon="1.15632">
        <ele>101.939964</ele>
        <time>2017-09-17T08:36:04Z</time>
      </trkpt>
      <trkpt lat="49.24863" lon="1.15675">
        <ele>101.964699</ele>
        <time>2017-09-17T08:36:18Z</time>
      </trkpt>
      <trkpt lat="49.24847" lon="1.15702">
        <ele>101.766701</ele>
        <time>2017-09-17T08:36:24Z</time>
      </trkpt>
      <trkpt lat="49.2483" lon="1.15738">
        <ele>101.807724</ele>
        <time>2017-09-17T08:36:32Z</time>
      </trkpt>
      <trkpt lat="49.24818" lon="1.15762">
        <ele>101.642761</ele>
        <time>2017-09-17T08:36:38Z</time>
      </trkpt>
      <trkpt lat="49.24788" lon="1.15826">
        <ele>101.538933</ele>
        <time>2017-09-17T08:36:52Z</time>
      </trkpt>
      <trkpt lat="49.24768" lon="1.15856">
        <ele>101.262062</ele>
        <time>2017-09-17T08:36:58Z</time>
      </trkpt>
      <trkpt lat="49.24748" lon="1.15901">
        <ele>100.271019</ele>
        <time>2017-09-17T08:37:06Z</time>
      </trkpt>
      <trkpt lat="49.24738" lon="1.15935">
        <ele>99.015556</ele>
        <time>2017-09-17T08:37:12Z</time>
      </trkpt>
      <trkpt lat="49.24728" lon="1.16025">
        <ele>96.472458</ele>
        <time>2017-09-17T08:37:26Z</time>
      </trkpt>
      <trkpt lat="49.24734" lon="1.16052">
        <ele>95.235214</ele>
        <time>2017-09-17T08:37:32Z</time>
      </trkpt>
      <trkpt lat="49.24752" lon="1.16059">
        <ele>94.744965</ele>
        <time>2017-09-17T08:37:38Z</time>
      </trkpt>
      <trkpt lat="49.24769" lon="1.16066">
        <ele>95.2314</ele>
        <time>2017-09-17T08:37:46Z</time>
      </trkpt>
      <trkpt lat="49.24807" lon="1.16086">
        <ele>97.329102</ele>
        <time>2017-09-17T08:38:00Z</time>
      </trkpt>
      <trkpt lat="49.24824" lon="1.16097">
        <ele>97.780922</ele>
        <time>2017-09-17T08:38:06Z</time>
      </trkpt>
      <trkpt lat="49.24844" lon="1.1611">
        <ele>98.347351</ele>
        <time>2017-09-17T08:38:12Z</time>
      </trkpt>
      <trkpt lat="49.24874" lon="1.16125">
        <ele>98.434761</ele>
        <time>2017-09-17T08:38:20Z</time>
      </trkpt>
      <trkpt lat="49.24931" lon="1.16161">
        <ele>98.050583</ele>
        <time>2017-09-17T08:38:34Z</time>
      </trkpt>
      <trkpt lat="49.24958" lon="1.16177">
        <ele>97.922348</ele>
        <time>2017-09-17T08:38:40Z</time>
      </trkpt>
      <trkpt lat="49.24984" lon="1.16192">
        <ele>97.492073</ele>
        <time>2017-09-17T08:38:46Z</time>
      </trkpt>
      <trkpt lat="49.25023" lon="1.16213">
        <ele>96.70015</ele>
        <time>2017-09-17T08:38:54Z</time>
      </trkpt>
      <trkpt lat="49.25069" lon="1.16291">
        <ele>93.281944</ele>
        <time>2017-09-17T08:39:08Z</time>
      </trkpt>
      <trkpt lat="49.25068" lon="1.16342">
        <ele>91.690178</ele>
        <time>2017-09-17T08:39:14Z</time>
      </trkpt>
      <trkpt lat="49.25065" lon="1.16396">
        <ele>90.196693</ele>
        <time>2017-09-17T08:39:20Z</time>
      </trkpt>
      <trkpt lat="49.2507" lon="1.16456">
        <ele>88.367386</ele>
        <time>2017-09-17T08:39:28Z</time>
      </trkpt>
      <trkpt lat="49.25057" lon="1.16561">
        <ele>84.666977</ele>
        <time>2017-09-17T08:39:40Z</time>
      </trkpt>
      <trkpt lat="49.25037" lon="1.16632">
        <ele>82.242821</ele>
        <time>2017-09-17T08:39:48Z</time>
      </trkpt>
      <trkpt lat="49.25025" lon="1.16687">
        <ele>79.551781</ele>
        <time>2017-09-17T08:39:54Z</time>
      </trkpt>
      <trkpt lat="49.25004" lon="1.16774">
        <ele>75.343628</ele>
        <time>2017-09-17T08:40:02Z</time>
      </trkpt>
      <trkpt lat="49.24964" lon="1.16927">
        <ele>65.600777</ele>
        <time>2017-09-17T08:40:14Z</time>
      </trkpt>
      <trkpt lat="49.24945" lon="1.17009">
        <ele>58.900246</ele>
        <time>2017-09-17T08:40:22Z</time>
      </trkpt>
      <trkpt lat="49.24932" lon="1.1706">
        <ele>54.51783</ele>
        <time>2017-09-17T08:40:28Z</time>
      </trkpt>
      <trkpt lat="49.24922" lon="1.17092">
        <ele>50.69688</ele>
        <time>2017-09-17T08:40:36Z</time>
      </trkpt>
      <trkpt lat="49.24886" lon="1.17082">
        <ele>46.026218</ele>
        <time>2017-09-17T08:40:48Z</time>
      </trkpt>
      <trkpt lat="49.2488" lon="1.17064">
        <ele>44.180218</ele>
        <time>2017-09-17T08:40:56Z</time>
      </trkpt>
      <trkpt lat="49.2488" lon="1.17043">
        <ele>43.453896</ele>
        <time>2017-09-17T08:41:02Z</time>
      </trkpt>
      <trkpt lat="49.24879" lon="1.17018">
        <ele>44.737316</ele>
        <time>2017-09-17T08:41:10Z</time>
      </trkpt>
      <trkpt lat="49.24881" lon="1.16987">
        <ele>47.697758</ele>
        <time>2017-09-17T08:41:22Z</time>
      </trkpt>
      <trkpt lat="49.24877" lon="1.16962">
        <ele>48.918869</ele>
        <time>2017-09-17T08:41:30Z</time>
      </trkpt>
      <trkpt lat="49.24874" lon="1.16946">
        <ele>50.025669</ele>
        <time>2017-09-17T08:41:36Z</time>
      </trkpt>
      <trkpt lat="49.24862" lon="1.16928">
        <ele>51.339981</ele>
        <time>2017-09-17T08:41:44Z</time>
      </trkpt>
      <trkpt lat="49.24842" lon="1.16901">
        <ele>52.929222</ele>
        <time>2017-09-17T08:41:56Z</time>
      </trkpt>
      <trkpt lat="49.24825" lon="1.16875">
        <ele>53.813122</ele>
        <time>2017-09-17T08:42:04Z</time>
      </trkpt>
      <trkpt lat="49.24813" lon="1.16858">
        <ele>54.248749</ele>
        <time>2017-09-17T08:42:10Z</time>
      </trkpt>
      <trkpt lat="49.24804" lon="1.16838">
        <ele>54.676918</ele>
        <time>2017-09-17T08:42:16Z</time>
      </trkpt>
      <trkpt lat="49.24786" lon="1.16792">
        <ele>55.673874</ele>
        <time>2017-09-17T08:42:30Z</time>
      </trkpt>
      <trkpt lat="49.24777" lon="1.1676">
        <ele>56.418709</ele>
        <time>2017-09-17T08:42:38Z</time>
      </trkpt>
      <trkpt lat="49.24766" lon="1.16735">
        <ele>57.106667</ele>
        <time>2017-09-17T08:42:44Z</time>
      </trkpt>
      <trkpt lat="49.24757" lon="1.16713">
        <ele>57.815521</ele>
        <time>2017-09-17T08:42:50Z</time>
      </trkpt>
      <trkpt lat="49.24736" lon="1.16668">
        <ele>59.489136</ele>
        <time>2017-09-17T08:43:04Z</time>
      </trkpt>
      <trkpt lat="49.24725" lon="1.16648">
        <ele>60.832996</ele>
        <time>2017-09-17T08:43:12Z</time>
      </trkpt>
      <trkpt lat="49.24716" lon="1.16631">
        <ele>61.563034</ele>
        <time>2017-09-17T08:43:18Z</time>
      </trkpt>
      <trkpt lat="49.24706" lon="1.16614">
        <ele>62.259071</ele>
        <time>2017-09-17T08:43:24Z</time>
      </trkpt>
      <trkpt lat="49.2469" lon="1.16558">
        <ele>63.831818</ele>
        <time>2017-09-17T08:43:38Z</time>
      </trkpt>
      <trkpt lat="49.24689" lon="1.16528">
        <ele>64.788628</ele>
        <time>2017-09-17T08:43:46Z</time>
      </trkpt>
      <trkpt lat="49.24688" lon="1.16506">
        <ele>65.739449</ele>
        <time>2017-09-17T08:43:52Z</time>
      </trkpt>
      <trkpt lat="49.24686" lon="1.16488">
        <ele>66.770424</ele>
        <time>2017-09-17T08:43:58Z</time>
      </trkpt>
      <trkpt lat="49.24683" lon="1.16442">
        <ele>69.5326</ele>
        <time>2017-09-17T08:44:12Z</time>
      </trkpt>
      <trkpt lat="49.2468" lon="1.16426">
        <ele>70.331421</ele>
        <time>2017-09-17T08:44:18Z</time>
      </trkpt>
      <trkpt lat="49.24674" lon="1.16399">
        <ele>71.126083</ele>
        <time>2017-09-17T08:44:26Z</time>
      </trkpt>
      <trkpt lat="49.24674" lon="1.16378">
        <ele>71.888489</ele>
        <time>2017-09-17T08:44:32Z</time>
      </trkpt>
      <trkpt lat="49.24678" lon="1.16332">
        <ele>73.81469</ele>
        <time>2017-09-17T08:44:46Z</time>
      </trkpt>
      <trkpt lat="49.24678" lon="1.16315">
        <ele>74.612442</ele>
        <time>2017-09-17T08:44:52Z</time>
      </trkpt>
      <trkpt lat="49.2468" lon="1.16292">
        <ele>75.946899</ele>
        <time>2017-09-17T08:45:00Z</time>
      </trkpt>
      <trkpt lat="49.2468" lon="1.16276">
        <ele>76.853874</ele>
        <time>2017-09-17T08:45:06Z</time>
      </trkpt>
      <trkpt lat="49.24672" lon="1.16238">
        <ele>78.488052</ele>
        <time>2017-09-17T08:45:20Z</time>
      </trkpt>
      <trkpt lat="49.2465" lon="1.16227">
        <ele>78.264328</ele>
        <time>2017-09-17T08:45:26Z</time>
      </trkpt>
      <trkpt lat="49.24617" lon="1.16214">
        <ele>75.917984</ele>
        <time>2017-09-17T08:45:34Z</time>
      </trkpt>
      <trkpt lat="49.24599" lon="1.16205">
        <ele>72.356888</ele>
        <time>2017-09-17T08:45:40Z</time>
      </trkpt>
      <trkpt lat="49.24543" lon="1.1618">
        <ele>60.02317</ele>
        <time>2017-09-17T08:45:54Z</time>
      </trkpt>
      <trkpt lat="49.24522" lon="1.1617">
        <ele>54.173382</ele>
        <time>2017-09-17T08:46:00Z</time>
      </trkpt>
      <trkpt lat="49.2448" lon="1.16153">
        <ele>45.93124</ele>
        <time>2017-09-17T08:46:08Z</time>
      </trkpt>
      <trkpt lat="49.24463" lon="1.16143">
        <ele>41.00486</ele>
        <time>2017-09-17T08:46:14Z</time>
      </trkpt>
      <trkpt lat="49.24435" lon="1.161">
        <ele>30.351042</ele>
        <time>2017-09-17T08:46:28Z</time>
      </trkpt>
      <trkpt lat="49.24432" lon="1.16068">
        <ele>28.461691</ele>
        <time>2017-09-17T08:46:34Z</time>
      </trkpt>
      <trkpt lat="49.24434" lon="1.16022">
        <ele>27.523813</ele>
        <time>2017-09-17T08:46:42Z</time>
      </trkpt>
      <trkpt lat="49.2444" lon="1.15991">
        <ele>27.622427</ele>
        <time>2017-09-17T08:46:48Z</time>
      </trkpt>
      <trkpt lat="49.24461" lon="1.15918">
        <ele>28.623693</ele>
        <time>2017-09-17T08:47:02Z</time>
      </trkpt>
      <trkpt lat="49.24468" lon="1.15882">
        <ele>29.114384</ele>
        <time>2017-09-17T08:47:08Z</time>
      </trkpt>
      <trkpt lat="49.24471" lon="1.15858">
        <ele>29.406176</ele>
        <time>2017-09-17T08:47:16Z</time>
      </trkpt>
      <trkpt lat="49.24458" lon="1.15854">
        <ele>29.141045</ele>
        <time>2017-09-17T08:47:22Z</time>
      </trkpt>
      <trkpt lat="49.24434" lon="1.15845">
        <ele>30.519356</ele>
        <time>2017-09-17T08:47:36Z</time>
      </trkpt>
      <trkpt lat="49.24425" lon="1.15842">
        <ele>32.278828</ele>
        <time>2017-09-17T08:47:42Z</time>
      </trkpt>
      <trkpt lat="49.24417" lon="1.15838">
        <ele>34.671516</ele>
        <time>2017-09-17T08:47:50Z</time>
      </trkpt>
      <trkpt lat="49.24411" lon="1.15828">
        <ele>38.491634</ele>
        <time>2017-09-17T08:48:52Z</time>
      </trkpt>
      <trkpt lat="49.2439" lon="1.15799">
        <ele>49.134403</ele>
        <time>2017-09-17T08:52:46Z</time>
      </trkpt>
      <trkpt lat="49.24394" lon="1.15786">
        <ele>49.206314</ele>
        <time>2017-09-17T08:52:52Z</time>
      </trkpt>
      <trkpt lat="49.24401" lon="1.15761">
        <ele>49.423962</ele>
        <time>2017-09-17T08:53:00Z</time>
      </trkpt>
      <trkpt lat="49.24405" lon="1.15742">
        <ele>49.733566</ele>
        <time>2017-09-17T08:53:06Z</time>
      </trkpt>
      <trkpt lat="49.24412" lon="1.15692">
        <ele>50.22826</ele>
        <time>2017-09-17T08:53:20Z</time>
      </trkpt>
      <trkpt lat="49.24417" lon="1.1567">
        <ele>50.378914</ele>
        <time>2017-09-17T08:53:26Z</time>
      </trkpt>
      <trkpt lat="49.2442" lon="1.15652">
        <ele>50.573151</ele>
        <time>2017-09-17T08:53:32Z</time>
      </trkpt>
      <trkpt lat="49.24422" lon="1.15628">
        <ele>51.079697</ele>
        <time>2017-09-17T08:53:40Z</time>
      </trkpt>
      <trkpt lat="49.24433" lon="1.15596">
        <ele>51.536655</ele>
        <time>2017-09-17T08:53:54Z</time>
      </trkpt>
      <trkpt lat="49.24437" lon="1.15579">
        <ele>51.618546</ele>
        <time>2017-09-17T08:54:00Z</time>
      </trkpt>
      <trkpt lat="49.2444" lon="1.15559">
        <ele>51.92152</ele>
        <time>2017-09-17T08:54:06Z</time>
      </trkpt>
      <trkpt lat="49.24449" lon="1.15534">
        <ele>52.08342</ele>
        <time>2017-09-17T08:54:14Z</time>
      </trkpt>
      <trkpt lat="49.24468" lon="1.15484">
        <ele>52.552383</ele>
        <time>2017-09-17T08:54:28Z</time>
      </trkpt>
      <trkpt lat="49.24479" lon="1.15464">
        <ele>52.790703</ele>
        <time>2017-09-17T08:54:34Z</time>
      </trkpt>
      <trkpt lat="49.2449" lon="1.15446">
        <ele>53.087322</ele>
        <time>2017-09-17T08:54:40Z</time>
      </trkpt>
      <trkpt lat="49.24502" lon="1.15422">
        <ele>53.445499</ele>
        <time>2017-09-17T08:54:48Z</time>
      </trkpt>
      <trkpt lat="49.24526" lon="1.15387">
        <ele>54.090656</ele>
        <time>2017-09-17T08:55:02Z</time>
      </trkpt>
      <trkpt lat="49.24537" lon="1.15371">
        <ele>54.283497</ele>
        <time>2017-09-17T08:55:08Z</time>
      </trkpt>
      <trkpt lat="49.24548" lon="1.15355">
        <ele>54.401665</ele>
        <time>2017-09-17T08:55:14Z</time>
      </trkpt>
      <trkpt lat="49.24559" lon="1.15339">
        <ele>54.527287</ele>
        <time>2017-09-17T08:55:22Z</time>
      </trkpt>
      <trkpt lat="49.24577" lon="1.15312">
        <ele>54.928673</ele>
        <time>2017-09-17T08:55:34Z</time>
      </trkpt>
      <trkpt lat="49.24592" lon="1.15296">
        <ele>55.072929</ele>
        <time>2017-09-17T08:55:42Z</time>
      </trkpt>
      <trkpt lat="49.24604" lon="1.15277">
        <ele>55.156628</ele>
        <time>2017-09-17T08:55:48Z</time>
      </trkpt>
      <trkpt lat="49.24619" lon="1.15253">
        <ele>55.265484</ele>
        <time>2017-09-17T08:55:56Z</time>
      </trkpt>
      <trkpt lat="49.24639" lon="1.15222">
        <ele>55.957035</ele>
        <time>2017-09-17T08:56:08Z</time>
      </trkpt>
      <trkpt lat="49.24624" lon="1.15207">
        <ele>56.080513</ele>
        <time>2017-09-17T08:56:16Z</time>
      </trkpt>
      <trkpt lat="49.24616" lon="1.15201">
        <ele>55.944355</ele>
        <time>2017-09-17T08:56:22Z</time>
      </trkpt>
      <trkpt lat="49.24603" lon="1.15196">
        <ele>56.782059</ele>
        <time>2017-09-17T08:56:30Z</time>
      </trkpt>
      <trkpt lat="49.24586" lon="1.15188">
        <ele>59.323746</ele>
        <time>2017-09-17T08:56:42Z</time>
      </trkpt>
      <trkpt lat="49.24574" lon="1.1518">
        <ele>60.468967</ele>
        <time>2017-09-17T08:56:50Z</time>
      </trkpt>
      <trkpt lat="49.24564" lon="1.15175">
        <ele>61.185089</ele>
        <time>2017-09-17T08:56:56Z</time>
      </trkpt>
      <trkpt lat="49.2455" lon="1.1517">
        <ele>61.990379</ele>
        <time>2017-09-17T08:57:04Z</time>
      </trkpt>
      <trkpt lat="49.24535" lon="1.15162">
        <ele>63.186661</ele>
        <time>2017-09-17T08:57:16Z</time>
      </trkpt>
      <trkpt lat="49.24527" lon="1.15156">
        <ele>64.493233</ele>
        <time>2017-09-17T08:57:24Z</time>
      </trkpt>
      <trkpt lat="49.24519" lon="1.15152">
        <ele>65.831963</ele>
        <time>2017-09-17T08:57:30Z</time>
      </trkpt>
      <trkpt lat="49.24511" lon="1.15147">
        <ele>67.510681</ele>
        <time>2017-09-17T08:57:38Z</time>
      </trkpt>
      <trkpt lat="49.24497" lon="1.1514">
        <ele>70.278618</ele>
        <time>2017-09-17T08:57:50Z</time>
      </trkpt>
      <trkpt lat="49.24487" lon="1.15133">
        <ele>72.119629</ele>
        <time>2017-09-17T08:57:58Z</time>
      </trkpt>
      <trkpt lat="49.2448" lon="1.15129">
        <ele>73.370354</ele>
        <time>2017-09-17T08:58:04Z</time>
      </trkpt>
      <trkpt lat="49.24474" lon="1.15124">
        <ele>74.561981</ele>
        <time>2017-09-17T08:58:10Z</time>
      </trkpt>
      <trkpt lat="49.24461" lon="1.15115">
        <ele>77.90625</ele>
        <time>2017-09-17T08:58:29Z</time>
      </trkpt>
      <trkpt lat="49.24454" lon="1.15111">
        <ele>79.089691</ele>
        <time>2017-09-17T08:58:37Z</time>
      </trkpt>
      <trkpt lat="49.24449" lon="1.15108">
        <ele>80.062103</ele>
        <time>2017-09-17T08:58:43Z</time>
      </trkpt>
      <trkpt lat="49.24444" lon="1.15104">
        <ele>80.981064</ele>
        <time>2017-09-17T08:58:49Z</time>
      </trkpt>
      <trkpt lat="49.2443" lon="1.15097">
        <ele>83.297569</ele>
        <time>2017-09-17T08:59:05Z</time>
      </trkpt>
      <trkpt lat="49.24422" lon="1.15092">
        <ele>84.748383</ele>
        <time>2017-09-17T08:59:13Z</time>
      </trkpt>
      <trkpt lat="49.24415" lon="1.15088">
        <ele>85.793671</ele>
        <time>2017-09-17T08:59:19Z</time>
      </trkpt>
      <trkpt lat="49.2441" lon="1.15085">
        <ele>86.641991</ele>
        <time>2017-09-17T08:59:25Z</time>
      </trkpt>
      <trkpt lat="49.24396" lon="1.15079">
        <ele>88.542778</ele>
        <time>2017-09-17T08:59:39Z</time>
      </trkpt>
      <trkpt lat="49.24388" lon="1.15076">
        <ele>89.700378</ele>
        <time>2017-09-17T08:59:47Z</time>
      </trkpt>
      <trkpt lat="49.24382" lon="1.15072">
        <ele>90.53981</ele>
        <time>2017-09-17T08:59:53Z</time>
      </trkpt>
      <trkpt lat="49.24374" lon="1.15064">
        <ele>95.201691</ele>
        <time>2017-09-17T09:06:16Z</time>
      </trkpt>
      <trkpt lat="49.24359" lon="1.1506">
        <ele>96.254417</ele>
        <time>2017-09-17T09:06:57Z</time>
      </trkpt>
      <trkpt lat="49.24347" lon="1.15053">
        <ele>96.807869</ele>
        <time>2017-09-17T09:07:03Z</time>
      </trkpt>
      <trkpt lat="49.24329" lon="1.15044">
        <ele>97.984558</ele>
        <time>2017-09-17T09:07:11Z</time>
      </trkpt>
      <trkpt lat="49.24315" lon="1.15037">
        <ele>98.565414</ele>
        <time>2017-09-17T09:07:17Z</time>
      </trkpt>
      <trkpt lat="49.24286" lon="1.1502">
        <ele>100.43502</ele>
        <time>2017-09-17T09:07:31Z</time>
      </trkpt>
      <trkpt lat="49.24271" lon="1.15011">
        <ele>101.070793</ele>
        <time>2017-09-17T09:07:37Z</time>
      </trkpt>
      <trkpt lat="49.24249" lon="1.14998">
        <ele>101.216965</ele>
        <time>2017-09-17T09:07:45Z</time>
      </trkpt>
      <trkpt lat="49.24226" lon="1.14985">
        <ele>101.63459</ele>
        <time>2017-09-17T09:07:51Z</time>
      </trkpt>
      <trkpt lat="49.24178" lon="1.14954">
        <ele>102.333153</ele>
        <time>2017-09-17T09:08:05Z</time>
      </trkpt>
      <trkpt lat="49.24161" lon="1.14945">
        <ele>102.500931</ele>
        <time>2017-09-17T09:08:11Z</time>
      </trkpt>
      <trkpt lat="49.24139" lon="1.14934">
        <ele>102.794815</ele>
        <time>2017-09-17T09:08:19Z</time>
      </trkpt>
      <trkpt lat="49.24129" lon="1.1494">
        <ele>103.200371</ele>
        <time>2017-09-17T09:08:25Z</time>
      </trkpt>
      <trkpt lat="49.24114" lon="1.15027">
        <ele>103.379227</ele>
        <time>2017-09-17T09:08:39Z</time>
      </trkpt>
      <trkpt lat="49.24103" lon="1.15083">
        <ele>102.778732</ele>
        <time>2017-09-17T09:08:45Z</time>
      </trkpt>
      <trkpt lat="49.24089" lon="1.15161">
        <ele>101.564034</ele>
        <time>2017-09-17T09:08:53Z</time>
      </trkpt>
      <trkpt lat="49.24079" lon="1.15216">
        <ele>100.736649</ele>
        <time>2017-09-17T09:08:59Z</time>
      </trkpt>
      <trkpt lat="49.24062" lon="1.15312">
        <ele>101.120033</ele>
        <time>2017-09-17T09:09:13Z</time>
      </trkpt>
      <trkpt lat="49.24055" lon="1.15348">
        <ele>101.844246</ele>
        <time>2017-09-17T09:09:19Z</time>
      </trkpt>
      <trkpt lat="49.24046" lon="1.15384">
        <ele>102.298798</ele>
        <time>2017-09-17T09:09:27Z</time>
      </trkpt>
      <trkpt lat="49.24031" lon="1.15377">
        <ele>102.420479</ele>
        <time>2017-09-17T09:09:33Z</time>
      </trkpt>
      <trkpt lat="49.23985" lon="1.15355">
        <ele>102.650063</ele>
        <time>2017-09-17T09:09:47Z</time>
      </trkpt>
      <trkpt lat="49.23967" lon="1.1535">
        <ele>102.950752</ele>
        <time>2017-09-17T09:09:53Z</time>
      </trkpt>
      <trkpt lat="49.23943" lon="1.1534">
        <ele>102.860809</ele>
        <time>2017-09-17T09:10:01Z</time>
      </trkpt>
      <trkpt lat="49.23924" lon="1.15331">
        <ele>103.232727</ele>
        <time>2017-09-17T09:10:07Z</time>
      </trkpt>
      <trkpt lat="49.23871" lon="1.15329">
        <ele>104.287834</ele>
        <time>2017-09-17T09:10:21Z</time>
      </trkpt>
      <trkpt lat="49.23848" lon="1.15348">
        <ele>104.254646</ele>
        <time>2017-09-17T09:10:27Z</time>
      </trkpt>
      <trkpt lat="49.23822" lon="1.15371">
        <ele>104.004196</ele>
        <time>2017-09-17T09:10:35Z</time>
      </trkpt>
      <trkpt lat="49.238" lon="1.1539">
        <ele>103.737236</ele>
        <time>2017-09-17T09:10:41Z</time>
      </trkpt>
      <trkpt lat="49.23748" lon="1.15439">
        <ele>103.003372</ele>
        <time>2017-09-17T09:10:55Z</time>
      </trkpt>
      <trkpt lat="49.23723" lon="1.15462">
        <ele>102.644234</ele>
        <time>2017-09-17T09:11:01Z</time>
      </trkpt>
      <trkpt lat="49.23692" lon="1.15493">
        <ele>102.189186</ele>
        <time>2017-09-17T09:11:09Z</time>
      </trkpt>
      <trkpt lat="49.2368" lon="1.15526">
        <ele>101.090294</ele>
        <time>2017-09-17T09:11:15Z</time>
      </trkpt>
      <trkpt lat="49.23669" lon="1.15644">
        <ele>98.207764</ele>
        <time>2017-09-17T09:11:29Z</time>
      </trkpt>
      <trkpt lat="49.23663" lon="1.15699">
        <ele>96.41449</ele>
        <time>2017-09-17T09:11:35Z</time>
      </trkpt>
      <trkpt lat="49.23658" lon="1.15758">
        <ele>94.311501</ele>
        <time>2017-09-17T09:11:41Z</time>
      </trkpt>
      <trkpt lat="49.23681" lon="1.15786">
        <ele>89.887054</ele>
        <time>2017-09-17T09:11:49Z</time>
      </trkpt>
      <trkpt lat="49.23726" lon="1.15803">
        <ele>86.970619</ele>
        <time>2017-09-17T09:12:03Z</time>
      </trkpt>
      <trkpt lat="49.23743" lon="1.1581">
        <ele>87.711678</ele>
        <time>2017-09-17T09:12:09Z</time>
      </trkpt>
      <trkpt lat="49.23761" lon="1.15818">
        <ele>88.649628</ele>
        <time>2017-09-17T09:12:15Z</time>
      </trkpt>
      <trkpt lat="49.23785" lon="1.15829">
        <ele>89.323402</ele>
        <time>2017-09-17T09:12:23Z</time>
      </trkpt>
      <trkpt lat="49.23835" lon="1.15851">
        <ele>89.464012</ele>
        <time>2017-09-17T09:12:37Z</time>
      </trkpt>
      <trkpt lat="49.23858" lon="1.1586">
        <ele>89.413239</ele>
        <time>2017-09-17T09:12:43Z</time>
      </trkpt>
      <trkpt lat="49.2388" lon="1.15871">
        <ele>89.225777</ele>
        <time>2017-09-17T09:12:49Z</time>
      </trkpt>
      <trkpt lat="49.23909" lon="1.15886">
        <ele>89.262878</ele>
        <time>2017-09-17T09:12:57Z</time>
      </trkpt>
      <trkpt lat="49.23957" lon="1.15906">
        <ele>89.672585</ele>
        <time>2017-09-17T09:13:11Z</time>
      </trkpt>
      <trkpt lat="49.23977" lon="1.15918">
        <ele>89.572418</ele>
        <time>2017-09-17T09:13:17Z</time>
      </trkpt>
      <trkpt lat="49.24001" lon="1.15928">
        <ele>89.429588</ele>
        <time>2017-09-17T09:13:23Z</time>
      </trkpt>
      <trkpt lat="49.24037" lon="1.15945">
        <ele>89.163681</ele>
        <time>2017-09-17T09:13:31Z</time>
      </trkpt>
      <trkpt lat="49.24096" lon="1.15971">
        <ele>88.036629</ele>
        <time>2017-09-17T09:13:43Z</time>
      </trkpt>
      <trkpt lat="49.24139" lon="1.15993">
        <ele>86.523277</ele>
        <time>2017-09-17T09:13:51Z</time>
      </trkpt>
      <trkpt lat="49.24182" lon="1.16009">
        <ele>84.915031</ele>
        <time>2017-09-17T09:13:57Z</time>
      </trkpt>
      <trkpt lat="49.24235" lon="1.16031">
        <ele>81.707321</ele>
        <time>2017-09-17T09:14:05Z</time>
      </trkpt>
      <trkpt lat="49.24295" lon="1.16058">
        <ele>73.676331</ele>
        <time>2017-09-17T09:14:17Z</time>
      </trkpt>
      <trkpt lat="49.24345" lon="1.16077">
        <ele>66.6017</ele>
        <time>2017-09-17T09:14:25Z</time>
      </trkpt>
      <trkpt lat="49.24362" lon="1.16057">
        <ele>59.01825</ele>
        <time>2017-09-17T09:14:31Z</time>
      </trkpt>
      <trkpt lat="49.24366" lon="1.16011">
        <ele>49.917461</ele>
        <time>2017-09-17T09:14:39Z</time>
      </trkpt>
      <trkpt lat="49.24377" lon="1.15982">
        <ele>46.327347</ele>
        <time>2017-09-17T09:14:51Z</time>
      </trkpt>
      <trkpt lat="49.24377" lon="1.16021">
        <ele>47.266594</ele>
        <time>2017-09-17T09:14:59Z</time>
      </trkpt>
      <trkpt lat="49.24377" lon="1.16054">
        <ele>47.622032</ele>
        <time>2017-09-17T09:15:05Z</time>
      </trkpt>
      <trkpt lat="49.24376" lon="1.16093">
        <ele>47.391193</ele>
        <time>2017-09-17T09:15:13Z</time>
      </trkpt>
      <trkpt lat="49.24382" lon="1.16147">
        <ele>46.254604</ele>
        <time>2017-09-17T09:15:25Z</time>
      </trkpt>
      <trkpt lat="49.24387" lon="1.16183">
        <ele>45.638351</ele>
        <time>2017-09-17T09:15:33Z</time>
      </trkpt>
      <trkpt lat="49.24389" lon="1.16211">
        <ele>45.339062</ele>
        <time>2017-09-17T09:15:39Z</time>
      </trkpt>
      <trkpt lat="49.24391" lon="1.16234">
        <ele>44.74799</ele>
        <time>2017-09-17T09:15:51Z</time>
      </trkpt>
      <trkpt lat="49.24392" lon="1.16254">
        <ele>44.710361</ele>
        <time>2017-09-17T09:16:05Z</time>
      </trkpt>
      <trkpt lat="49.24394" lon="1.1627">
        <ele>44.35125</ele>
        <time>2017-09-17T09:16:15Z</time>
      </trkpt>
      <trkpt lat="49.24394" lon="1.16298">
        <ele>44.220516</ele>
        <time>2017-09-17T09:16:21Z</time>
      </trkpt>
      <trkpt lat="49.24396" lon="1.16331">
        <ele>44.162186</ele>
        <time>2017-09-17T09:16:27Z</time>
      </trkpt>
      <trkpt lat="49.2439" lon="1.16399">
        <ele>43.663479</ele>
        <time>2017-09-17T09:16:41Z</time>
      </trkpt>
      <trkpt lat="49.24387" lon="1.16428">
        <ele>43.571907</ele>
        <time>2017-09-17T09:16:49Z</time>
      </trkpt>
      <trkpt lat="49.24384" lon="1.16448">
        <ele>43.507431</ele>
        <time>2017-09-17T09:16:55Z</time>
      </trkpt>
      <trkpt lat="49.2438" lon="1.16468">
        <ele>43.257332</ele>
        <time>2017-09-17T09:17:01Z</time>
      </trkpt>
      <trkpt lat="49.24377" lon="1.16508">
        <ele>44.34166</ele>
        <time>2017-09-17T09:17:50Z</time>
      </trkpt>
      <trkpt lat="49.24374" lon="1.1652">
        <ele>46.271564</ele>
        <time>2017-09-17T09:18:00Z</time>
      </trkpt>
      <trkpt lat="49.24372" lon="1.1653">
        <ele>47.280655</ele>
        <time>2017-09-17T09:18:06Z</time>
      </trkpt>
      <trkpt lat="49.24371" lon="1.1654">
        <ele>48.057598</ele>
        <time>2017-09-17T09:18:12Z</time>
      </trkpt>
      <trkpt lat="49.24378" lon="1.16559">
        <ele>49.254593</ele>
        <time>2017-09-17T09:18:28Z</time>
      </trkpt>
      <trkpt lat="49.24367" lon="1.16587">
        <ele>47.423798</ele>
        <time>2017-09-17T09:18:42Z</time>
      </trkpt>
      <trkpt lat="49.24362" lon="1.16594">
        <ele>46.768181</ele>
        <time>2017-09-17T09:18:50Z</time>
      </trkpt>
      <trkpt lat="49.24356" lon="1.166">
        <ele>46.747387</ele>
        <time>2017-09-17T09:18:56Z</time>
      </trkpt>
      <trkpt lat="49.24343" lon="1.16612">
        <ele>50.701382</ele>
        <time>2017-09-17T09:19:25Z</time>
      </trkpt>
      <trkpt lat="49.24337" lon="1.1663">
        <ele>51.787804</ele>
        <time>2017-09-17T09:19:39Z</time>
      </trkpt>
      <trkpt lat="49.24332" lon="1.16662">
        <ele>51.748566</ele>
        <time>2017-09-17T09:19:47Z</time>
      </trkpt>
      <trkpt lat="49.24334" lon="1.16682">
        <ele>51.479462</ele>
        <time>2017-09-17T09:19:53Z</time>
      </trkpt>
      <trkpt lat="49.24317" lon="1.16712">
        <ele>49.895702</ele>
        <time>2017-09-17T09:20:07Z</time>
      </trkpt>
      <trkpt lat="49.24299" lon="1.16739">
        <ele>49.306232</ele>
        <time>2017-09-17T09:20:13Z</time>
      </trkpt>
      <trkpt lat="49.24258" lon="1.16763">
        <ele>48.243664</ele>
        <time>2017-09-17T09:20:21Z</time>
      </trkpt>
      <trkpt lat="49.24222" lon="1.16777">
        <ele>47.219788</ele>
        <time>2017-09-17T09:20:27Z</time>
      </trkpt>
      <trkpt lat="49.24172" lon="1.16755">
        <ele>42.843159</ele>
        <time>2017-09-17T09:20:41Z</time>
      </trkpt>
      <trkpt lat="49.24163" lon="1.16739">
        <ele>41.878067</ele>
        <time>2017-09-17T09:20:47Z</time>
      </trkpt>
      <trkpt lat="49.2415" lon="1.16713">
        <ele>42.704685</ele>
        <time>2017-09-17T09:20:55Z</time>
      </trkpt>
      <trkpt lat="49.24128" lon="1.16694">
        <ele>43.944008</ele>
        <time>2017-09-17T09:21:01Z</time>
      </trkpt>
      <trkpt lat="49.24085" lon="1.16653">
        <ele>45.039986</ele>
        <time>2017-09-17T09:21:15Z</time>
      </trkpt>
      <trkpt lat="49.2406" lon="1.1664">
        <ele>44.852875</ele>
        <time>2017-09-17T09:21:21Z</time>
      </trkpt>
      <trkpt lat="49.24009" lon="1.16621">
        <ele>43.649879</ele>
        <time>2017-09-17T09:21:29Z</time>
      </trkpt>
      <trkpt lat="49.2397" lon="1.16617">
        <ele>42.212475</ele>
        <time>2017-09-17T09:21:35Z</time>
      </trkpt>
      <trkpt lat="49.23908" lon="1.16574">
        <ele>40.622822</ele>
        <time>2017-09-17T09:21:49Z</time>
      </trkpt>
      <trkpt lat="49.23883" lon="1.16563">
        <ele>40.922832</ele>
        <time>2017-09-17T09:21:55Z</time>
      </trkpt>
      <trkpt lat="49.23846" lon="1.16548">
        <ele>41.272434</ele>
        <time>2017-09-17T09:22:03Z</time>
      </trkpt>
      <trkpt lat="49.23819" lon="1.16549">
        <ele>40.858238</ele>
        <time>2017-09-17T09:22:09Z</time>
      </trkpt>
      <trkpt lat="49.23742" lon="1.16537">
        <ele>38.188892</ele>
        <time>2017-09-17T09:22:23Z</time>
      </trkpt>
      <trkpt lat="49.23703" lon="1.16532">
        <ele>36.193874</ele>
        <time>2017-09-17T09:22:29Z</time>
      </trkpt>
      <trkpt lat="49.23662" lon="1.16515">
        <ele>31.937531</ele>
        <time>2017-09-17T09:22:37Z</time>
      </trkpt>
      <trkpt lat="49.23637" lon="1.16528">
        <ele>29.875561</ele>
        <time>2017-09-17T09:22:43Z</time>
      </trkpt>
      <trkpt lat="49.23584" lon="1.16515">
        <ele>29.416122</ele>
        <time>2017-09-17T09:22:57Z</time>
      </trkpt>
      <trkpt lat="49.23569" lon="1.16509">
        <ele>30.420246</ele>
        <time>2017-09-17T09:23:03Z</time>
      </trkpt>
      <trkpt lat="49.23557" lon="1.16494">
        <ele>31.856583</ele>
        <time>2017-09-17T09:23:11Z</time>
      </trkpt>
      <trkpt lat="49.23553" lon="1.16482">
        <ele>33.649021</ele>
        <time>2017-09-17T09:23:20Z</time>
      </trkpt>
      <trkpt lat="49.2354" lon="1.1645">
        <ele>36.022625</ele>
        <time>2017-09-17T09:23:34Z</time>
      </trkpt>
      <trkpt lat="49.23536" lon="1.16441">
        <ele>37.819229</ele>
        <time>2017-09-17T09:24:20Z</time>
      </trkpt>
      <trkpt lat="49.23534" lon="1.16432">
        <ele>38.886333</ele>
        <time>2017-09-17T09:27:06Z</time>
      </trkpt>
      <trkpt lat="49.23527" lon="1.16418">
        <ele>39.274323</ele>
        <time>2017-09-17T09:27:12Z</time>
      </trkpt>
      <trkpt lat="49.23514" lon="1.16393">
        <ele>41.37685</ele>
        <time>2017-09-17T09:27:26Z</time>
      </trkpt>
      <trkpt lat="49.2351" lon="1.1638">
        <ele>42.461975</ele>
        <time>2017-09-17T09:27:32Z</time>
      </trkpt>
      <trkpt lat="49.23507" lon="1.16367">
        <ele>43.503513</ele>
        <time>2017-09-17T09:27:38Z</time>
      </trkpt>
      <trkpt lat="49.23501" lon="1.16349">
        <ele>45.223919</ele>
        <time>2017-09-17T09:27:48Z</time>
      </trkpt>
      <trkpt lat="49.2349" lon="1.16322">
        <ele>48.070404</ele>
        <time>2017-09-17T09:28:03Z</time>
      </trkpt>
      <trkpt lat="49.23482" lon="1.16311">
        <ele>49.200588</ele>
        <time>2017-09-17T09:28:09Z</time>
      </trkpt>
      <trkpt lat="49.23476" lon="1.16301">
        <ele>50.389095</ele>
        <time>2017-09-17T09:28:15Z</time>
      </trkpt>
      <trkpt lat="49.2347" lon="1.16284">
        <ele>51.964321</ele>
        <time>2017-09-17T09:28:25Z</time>
      </trkpt>
      <trkpt lat="49.23459" lon="1.16253">
        <ele>54.670609</ele>
        <time>2017-09-17T09:28:43Z</time>
      </trkpt>
      <trkpt lat="49.2346" lon="1.16245">
        <ele>55.53928</ele>
        <time>2017-09-17T09:28:49Z</time>
      </trkpt>
      <trkpt lat="49.23461" lon="1.16234">
        <ele>56.476662</ele>
        <time>2017-09-17T09:28:55Z</time>
      </trkpt>
      <trkpt lat="49.23459" lon="1.16214">
        <ele>58.411785</ele>
        <time>2017-09-17T09:29:05Z</time>
      </trkpt>
      <trkpt lat="49.23447" lon="1.16194">
        <ele>60.802097</ele>
        <time>2017-09-17T09:29:19Z</time>
      </trkpt>
      <trkpt lat="49.23442" lon="1.16185">
        <ele>61.74099</ele>
        <time>2017-09-17T09:29:25Z</time>
      </trkpt>
      <trkpt lat="49.23434" lon="1.1618">
        <ele>62.569805</ele>
        <time>2017-09-17T09:29:31Z</time>
      </trkpt>
      <trkpt lat="49.23422" lon="1.16169">
        <ele>63.267838</ele>
        <time>2017-09-17T09:29:39Z</time>
      </trkpt>
      <trkpt lat="49.2342" lon="1.16141">
        <ele>64.645393</ele>
        <time>2017-09-17T09:29:51Z</time>
      </trkpt>
      <trkpt lat="49.23416" lon="1.16126">
        <ele>66.015892</ele>
        <time>2017-09-17T09:29:59Z</time>
      </trkpt>
      <trkpt lat="49.2341" lon="1.16116">
        <ele>67.086075</ele>
        <time>2017-09-17T09:30:05Z</time>
      </trkpt>
      <trkpt lat="49.234" lon="1.16101">
        <ele>68.058762</ele>
        <time>2017-09-17T09:30:13Z</time>
      </trkpt>
      <trkpt lat="49.2338" lon="1.16087">
        <ele>69.292412</ele>
        <time>2017-09-17T09:30:25Z</time>
      </trkpt>
      <trkpt lat="49.23365" lon="1.16071">
        <ele>70.133278</ele>
        <time>2017-09-17T09:30:33Z</time>
      </trkpt>
      <trkpt lat="49.23351" lon="1.16056">
        <ele>70.550171</ele>
        <time>2017-09-17T09:30:39Z</time>
      </trkpt>
      <trkpt lat="49.23335" lon="1.1604">
        <ele>71.030556</ele>
        <time>2017-09-17T09:30:47Z</time>
      </trkpt>
      <trkpt lat="49.23296" lon="1.16085">
        <ele>70.866745</ele>
        <time>2017-09-17T09:30:59Z</time>
      </trkpt>
      <trkpt lat="49.23238" lon="1.16111">
        <ele>69.065567</ele>
        <time>2017-09-17T09:31:07Z</time>
      </trkpt>
      <trkpt lat="49.23185" lon="1.16137">
        <ele>66.406395</ele>
        <time>2017-09-17T09:31:13Z</time>
      </trkpt>
      <trkpt lat="49.23116" lon="1.16166">
        <ele>62.142834</ele>
        <time>2017-09-17T09:31:21Z</time>
      </trkpt>
      <trkpt lat="49.23019" lon="1.16123">
        <ele>53.291122</ele>
        <time>2017-09-17T09:31:33Z</time>
      </trkpt>
      <trkpt lat="49.22953" lon="1.16073">
        <ele>47.139729</ele>
        <time>2017-09-17T09:31:41Z</time>
      </trkpt>
      <trkpt lat="49.22937" lon="1.16076">
        <ele>42.330582</ele>
        <time>2017-09-17T09:31:47Z</time>
      </trkpt>
      <trkpt lat="49.22918" lon="1.16047">
        <ele>37.060711</ele>
        <time>2017-09-17T09:31:55Z</time>
      </trkpt>
      <trkpt lat="49.22855" lon="1.1599">
        <ele>33.190315</ele>
        <time>2017-09-17T09:32:07Z</time>
      </trkpt>
      <trkpt lat="49.22821" lon="1.15941">
        <ele>30.71447</ele>
        <time>2017-09-17T09:32:15Z</time>
      </trkpt>
      <trkpt lat="49.22804" lon="1.159">
        <ele>28.997818</ele>
        <time>2017-09-17T09:32:21Z</time>
      </trkpt>
      <trkpt lat="49.2279" lon="1.15856">
        <ele>28.051579</ele>
        <time>2017-09-17T09:32:27Z</time>
      </trkpt>
      <trkpt lat="49.22743" lon="1.15821">
        <ele>27.936268</ele>
        <time>2017-09-17T09:32:41Z</time>
      </trkpt>
      <trkpt lat="49.22716" lon="1.15885">
        <ele>26.619698</ele>
        <time>2017-09-17T09:32:49Z</time>
      </trkpt>
      <trkpt lat="49.22673" lon="1.15932">
        <ele>24.798656</ele>
        <time>2017-09-17T09:32:55Z</time>
      </trkpt>
      <trkpt lat="49.22631" lon="1.15979">
        <ele>22.213844</ele>
        <time>2017-09-17T09:33:01Z</time>
      </trkpt>
      <trkpt lat="49.22617" lon="1.15927">
        <ele>16.226053</ele>
        <time>2017-09-17T09:33:15Z</time>
      </trkpt>
      <trkpt lat="49.22622" lon="1.15858">
        <ele>15.492332</ele>
        <time>2017-09-17T09:33:23Z</time>
      </trkpt>
      <trkpt lat="49.22627" lon="1.15812">
        <ele>15.857721</ele>
        <time>2017-09-17T09:33:29Z</time>
      </trkpt>
      <trkpt lat="49.22633" lon="1.15766">
        <ele>16.277967</ele>
        <time>2017-09-17T09:33:35Z</time>
      </trkpt>
      <trkpt lat="49.22642" lon="1.15687">
        <ele>17.93482</ele>
        <time>2017-09-17T09:33:49Z</time>
      </trkpt>
      <trkpt lat="49.22649" lon="1.15646">
        <ele>19.24563</ele>
        <time>2017-09-17T09:33:57Z</time>
      </trkpt>
      <trkpt lat="49.22654" lon="1.15616">
        <ele>20.178774</ele>
        <time>2017-09-17T09:34:03Z</time>
      </trkpt>
      <trkpt lat="49.22657" lon="1.15585">
        <ele>21.025034</ele>
        <time>2017-09-17T09:34:09Z</time>
      </trkpt>
      <trkpt lat="49.22659" lon="1.15513">
        <ele>22.625364</ele>
        <time>2017-09-17T09:34:23Z</time>
      </trkpt>
      <trkpt lat="49.22658" lon="1.15482">
        <ele>23.337187</ele>
        <time>2017-09-17T09:34:29Z</time>
      </trkpt>
      <trkpt lat="49.22654" lon="1.15443">
        <ele>24.430317</ele>
        <time>2017-09-17T09:34:37Z</time>
      </trkpt>
      <trkpt lat="49.22652" lon="1.15415">
        <ele>25.215214</ele>
        <time>2017-09-17T09:34:43Z</time>
      </trkpt>
      <trkpt lat="49.22645" lon="1.15348">
        <ele>26.404587</ele>
        <time>2017-09-17T09:34:57Z</time>
      </trkpt>
      <trkpt lat="49.22637" lon="1.1533">
        <ele>26.931429</ele>
        <time>2017-09-17T09:35:03Z</time>
      </trkpt>
      <trkpt lat="49.22627" lon="1.15315">
        <ele>28.073854</ele>
        <time>2017-09-17T09:35:11Z</time>
      </trkpt>
      <trkpt lat="49.2262" lon="1.15306">
        <ele>28.807096</ele>
        <time>2017-09-17T09:35:17Z</time>
      </trkpt>
      <trkpt lat="49.22604" lon="1.15286">
        <ele>31.070379</ele>
        <time>2017-09-17T09:35:31Z</time>
      </trkpt>
      <trkpt lat="49.22599" lon="1.15277">
        <ele>31.920502</ele>
        <time>2017-09-17T09:35:37Z</time>
      </trkpt>
      <trkpt lat="49.2259" lon="1.15263">
        <ele>33.099018</ele>
        <time>2017-09-17T09:35:45Z</time>
      </trkpt>
      <trkpt lat="49.22583" lon="1.15253">
        <ele>34.226921</ele>
        <time>2017-09-17T09:35:51Z</time>
      </trkpt>
      <trkpt lat="49.22572" lon="1.15236">
        <ele>36.336033</ele>
        <time>2017-09-17T09:36:05Z</time>
      </trkpt>
      <trkpt lat="49.22567" lon="1.15227">
        <ele>37.085304</ele>
        <time>2017-09-17T09:36:11Z</time>
      </trkpt>
      <trkpt lat="49.22561" lon="1.15216">
        <ele>38.172577</ele>
        <time>2017-09-17T09:36:19Z</time>
      </trkpt>
      <trkpt lat="49.22555" lon="1.15206">
        <ele>38.996605</ele>
        <time>2017-09-17T09:36:25Z</time>
      </trkpt>
      <trkpt lat="49.22543" lon="1.15181">
        <ele>41.063263</ele>
        <time>2017-09-17T09:36:39Z</time>
      </trkpt>
      <trkpt lat="49.22537" lon="1.15169">
        <ele>41.835232</ele>
        <time>2017-09-17T09:36:45Z</time>
      </trkpt>
      <trkpt lat="49.22532" lon="1.15154">
        <ele>42.872917</ele>
        <time>2017-09-17T09:36:53Z</time>
      </trkpt>
      <trkpt lat="49.22529" lon="1.15146">
        <ele>43.553307</ele>
        <time>2017-09-17T09:36:59Z</time>
      </trkpt>
      <trkpt lat="49.22522" lon="1.15118">
        <ele>45.324497</ele>
        <time>2017-09-17T09:37:13Z</time>
      </trkpt>
      <trkpt lat="49.22519" lon="1.15107">
        <ele>46.186977</ele>
        <time>2017-09-17T09:37:19Z</time>
      </trkpt>
      <trkpt lat="49.22516" lon="1.15093">
        <ele>47.375282</ele>
        <time>2017-09-17T09:37:27Z</time>
      </trkpt>
      <trkpt lat="49.22513" lon="1.15081">
        <ele>48.254253</ele>
        <time>2017-09-17T09:37:33Z</time>
      </trkpt>
      <trkpt lat="49.22508" lon="1.15058">
        <ele>50.455948</ele>
        <time>2017-09-17T09:37:47Z</time>
      </trkpt>
      <trkpt lat="49.22507" lon="1.15049">
        <ele>51.30225</ele>
        <time>2017-09-17T09:37:53Z</time>
      </trkpt>
      <trkpt lat="49.22505" lon="1.15038">
        <ele>52.347519</ele>
        <time>2017-09-17T09:38:01Z</time>
      </trkpt>
      <trkpt lat="49.22504" lon="1.1503">
        <ele>53.147835</ele>
        <time>2017-09-17T09:38:07Z</time>
      </trkpt>
      <trkpt lat="49.225" lon="1.15011">
        <ele>55.180935</ele>
        <time>2017-09-17T09:38:21Z</time>
      </trkpt>
      <trkpt lat="49.22498" lon="1.15">
        <ele>56.107456</ele>
        <time>2017-09-17T09:38:27Z</time>
      </trkpt>
      <trkpt lat="49.22497" lon="1.14989">
        <ele>57.344948</ele>
        <time>2017-09-17T09:38:35Z</time>
      </trkpt>
      <trkpt lat="49.22495" lon="1.1498">
        <ele>58.294258</ele>
        <time>2017-09-17T09:38:41Z</time>
      </trkpt>
      <trkpt lat="49.22491" lon="1.14958">
        <ele>60.588284</ele>
        <time>2017-09-17T09:38:55Z</time>
      </trkpt>
      <trkpt lat="49.2249" lon="1.14949">
        <ele>61.490913</ele>
        <time>2017-09-17T09:39:01Z</time>
      </trkpt>
      <trkpt lat="49.2249" lon="1.1494">
        <ele>62.346695</ele>
        <time>2017-09-17T09:39:07Z</time>
      </trkpt>
      <trkpt lat="49.22489" lon="1.14927">
        <ele>63.764286</ele>
        <time>2017-09-17T09:39:15Z</time>
      </trkpt>
      <trkpt lat="49.22488" lon="1.14903">
        <ele>66.129166</ele>
        <time>2017-09-17T09:39:29Z</time>
      </trkpt>
      <trkpt lat="49.22485" lon="1.14892">
        <ele>67.13932</ele>
        <time>2017-09-17T09:39:35Z</time>
      </trkpt>
      <trkpt lat="49.22483" lon="1.14884">
        <ele>68.034119</ele>
        <time>2017-09-17T09:39:41Z</time>
      </trkpt>
      <trkpt lat="49.22478" lon="1.14873">
        <ele>69.161552</ele>
        <time>2017-09-17T09:39:49Z</time>
      </trkpt>
      <trkpt lat="49.22467" lon="1.14856">
        <ele>70.775688</ele>
        <time>2017-09-17T09:40:03Z</time>
      </trkpt>
      <trkpt lat="49.22463" lon="1.14848">
        <ele>71.70929</ele>
        <time>2017-09-17T09:40:09Z</time>
      </trkpt>
      <trkpt lat="49.22457" lon="1.14841">
        <ele>72.600906</ele>
        <time>2017-09-17T09:40:15Z</time>
      </trkpt>
      <trkpt lat="49.22451" lon="1.14831">
        <ele>73.657501</ele>
        <time>2017-09-17T09:40:23Z</time>
      </trkpt>
      <trkpt lat="49.22438" lon="1.14813">
        <ele>75.856346</ele>
        <time>2017-09-17T09:40:37Z</time>
      </trkpt>
      <trkpt lat="49.22432" lon="1.14805">
        <ele>76.713943</ele>
        <time>2017-09-17T09:40:43Z</time>
      </trkpt>
      <trkpt lat="49.22427" lon="1.14796">
        <ele>77.260864</ele>
        <time>2017-09-17T09:40:49Z</time>
      </trkpt>
      <trkpt lat="49.22419" lon="1.14785">
        <ele>78.192574</ele>
        <time>2017-09-17T09:40:57Z</time>
      </trkpt>
      <trkpt lat="49.22406" lon="1.14765">
        <ele>79.66288</ele>
        <time>2017-09-17T09:41:09Z</time>
      </trkpt>
      <trkpt lat="49.22398" lon="1.14753">
        <ele>80.593895</ele>
        <time>2017-09-17T09:41:17Z</time>
      </trkpt>
      <trkpt lat="49.22392" lon="1.14743">
        <ele>81.359337</ele>
        <time>2017-09-17T09:41:23Z</time>
      </trkpt>
      <trkpt lat="49.22382" lon="1.14733">
        <ele>82.360924</ele>
        <time>2017-09-17T09:41:31Z</time>
      </trkpt>
      <trkpt lat="49.22369" lon="1.14714">
        <ele>83.738693</ele>
        <time>2017-09-17T09:41:43Z</time>
      </trkpt>
      <trkpt lat="49.22361" lon="1.14701">
        <ele>84.770882</ele>
        <time>2017-09-17T09:41:51Z</time>
      </trkpt>
      <trkpt lat="49.22356" lon="1.14691">
        <ele>85.645103</ele>
        <time>2017-09-17T09:41:57Z</time>
      </trkpt>
      <trkpt lat="49.22348" lon="1.14679">
        <ele>86.782074</ele>
        <time>2017-09-17T09:42:05Z</time>
      </trkpt>
      <trkpt lat="49.22335" lon="1.14662">
        <ele>88.274445</ele>
        <time>2017-09-17T09:42:17Z</time>
      </trkpt>
      <trkpt lat="49.22327" lon="1.1465">
        <ele>89.268822</ele>
        <time>2017-09-17T09:42:25Z</time>
      </trkpt>
      <trkpt lat="49.22321" lon="1.1464">
        <ele>90.073334</ele>
        <time>2017-09-17T09:42:31Z</time>
      </trkpt>
      <trkpt lat="49.22312" lon="1.14628">
        <ele>91.279404</ele>
        <time>2017-09-17T09:42:39Z</time>
      </trkpt>
      <trkpt lat="49.22299" lon="1.14608">
        <ele>93.365814</ele>
        <time>2017-09-17T09:42:51Z</time>
      </trkpt>
      <trkpt lat="49.2229" lon="1.14595">
        <ele>94.719704</ele>
        <time>2017-09-17T09:42:59Z</time>
      </trkpt>
      <trkpt lat="49.22284" lon="1.14584">
        <ele>95.655518</ele>
        <time>2017-09-17T09:43:05Z</time>
      </trkpt>
      <trkpt lat="49.22273" lon="1.14569">
        <ele>96.429573</ele>
        <time>2017-09-17T09:43:13Z</time>
      </trkpt>
      <trkpt lat="49.22255" lon="1.14542">
        <ele>97.142807</ele>
        <time>2017-09-17T09:43:25Z</time>
      </trkpt>
      <trkpt lat="49.22244" lon="1.14525">
        <ele>97.568604</ele>
        <time>2017-09-17T09:43:33Z</time>
      </trkpt>
      <trkpt lat="49.22236" lon="1.14512">
        <ele>98.105354</ele>
        <time>2017-09-17T09:43:39Z</time>
      </trkpt>
      <trkpt lat="49.22227" lon="1.14498">
        <ele>98.609032</ele>
        <time>2017-09-17T09:43:45Z</time>
      </trkpt>
      <trkpt lat="49.22206" lon="1.14468">
        <ele>99.551285</ele>
        <time>2017-09-17T09:43:59Z</time>
      </trkpt>
      <trkpt lat="49.22194" lon="1.14452">
        <ele>100.102509</ele>
        <time>2017-09-17T09:44:07Z</time>
      </trkpt>
      <trkpt lat="49.22186" lon="1.1444">
        <ele>100.538589</ele>
        <time>2017-09-17T09:44:13Z</time>
      </trkpt>
      <trkpt lat="49.22178" lon="1.1443">
        <ele>101.050987</ele>
        <time>2017-09-17T09:44:19Z</time>
      </trkpt>
      <trkpt lat="49.22162" lon="1.14397">
        <ele>102.22081</ele>
        <time>2017-09-17T09:46:26Z</time>
      </trkpt>
      <trkpt lat="49.2215" lon="1.14372">
        <ele>103.038918</ele>
        <time>2017-09-17T09:46:34Z</time>
      </trkpt>
      <trkpt lat="49.22142" lon="1.14354">
        <ele>103.754166</ele>
        <time>2017-09-17T09:46:40Z</time>
      </trkpt>
      <trkpt lat="49.22134" lon="1.14334">
        <ele>104.509209</ele>
        <time>2017-09-17T09:46:46Z</time>
      </trkpt>
      <trkpt lat="49.22112" lon="1.14284">
        <ele>105.854172</ele>
        <time>2017-09-17T09:47:00Z</time>
      </trkpt>
      <trkpt lat="49.22098" lon="1.1426">
        <ele>106.65538</ele>
        <time>2017-09-17T09:47:08Z</time>
      </trkpt>
      <trkpt lat="49.22088" lon="1.14237">
        <ele>107.306625</ele>
        <time>2017-09-17T09:47:14Z</time>
      </trkpt>
      <trkpt lat="49.22079" lon="1.14217">
        <ele>107.929123</ele>
        <time>2017-09-17T09:47:20Z</time>
      </trkpt>
      <trkpt lat="49.22053" lon="1.14157">
        <ele>108.771599</ele>
        <time>2017-09-17T09:47:34Z</time>
      </trkpt>
      <trkpt lat="49.22041" lon="1.14133">
        <ele>108.958366</ele>
        <time>2017-09-17T09:47:40Z</time>
      </trkpt>
      <trkpt lat="49.22028" lon="1.14102">
        <ele>109.426964</ele>
        <time>2017-09-17T09:47:48Z</time>
      </trkpt>
      <trkpt lat="49.22017" lon="1.14075">
        <ele>110.011116</ele>
        <time>2017-09-17T09:47:54Z</time>
      </trkpt>
      <trkpt lat="49.21993" lon="1.14014">
        <ele>111.544113</ele>
        <time>2017-09-17T09:48:08Z</time>
      </trkpt>
      <trkpt lat="49.21981" lon="1.13988">
        <ele>111.908623</ele>
        <time>2017-09-17T09:48:14Z</time>
      </trkpt>
      <trkpt lat="49.21966" lon="1.13956">
        <ele>112.184929</ele>
        <time>2017-09-17T09:48:22Z</time>
      </trkpt>
      <trkpt lat="49.21956" lon="1.13933">
        <ele>112.469772</ele>
        <time>2017-09-17T09:48:28Z</time>
      </trkpt>
      <trkpt lat="49.21938" lon="1.1387">
        <ele>113.341354</ele>
        <time>2017-09-17T09:48:42Z</time>
      </trkpt>
      <trkpt lat="49.2193" lon="1.13842">
        <ele>113.870316</ele>
        <time>2017-09-17T09:48:48Z</time>
      </trkpt>
      <trkpt lat="49.21921" lon="1.13805">
        <ele>114.532295</ele>
        <time>2017-09-17T09:48:56Z</time>
      </trkpt>
      <trkpt lat="49.21914" lon="1.13776">
        <ele>115.052551</ele>
        <time>2017-09-17T09:49:02Z</time>
      </trkpt>
      <trkpt lat="49.21896" lon="1.13708">
        <ele>115.984741</ele>
        <time>2017-09-17T09:49:16Z</time>
      </trkpt>
      <trkpt lat="49.21889" lon="1.13678">
        <ele>116.131012</ele>
        <time>2017-09-17T09:49:22Z</time>
      </trkpt>
      <trkpt lat="49.21879" lon="1.1364">
        <ele>116.332939</ele>
        <time>2017-09-17T09:49:30Z</time>
      </trkpt>
      <trkpt lat="49.21871" lon="1.13613">
        <ele>116.613647</ele>
        <time>2017-09-17T09:49:36Z</time>
      </trkpt>
      <trkpt lat="49.21824" lon="1.13601">
        <ele>117.26696</ele>
        <time>2017-09-17T09:49:50Z</time>
      </trkpt>
      <trkpt lat="49.21798" lon="1.1361">
        <ele>117.166306</ele>
        <time>2017-09-17T09:49:56Z</time>
      </trkpt>
      <trkpt lat="49.21766" lon="1.13646">
        <ele>116.689735</ele>
        <time>2017-09-17T09:50:04Z</time>
      </trkpt>
      <trkpt lat="49.21737" lon="1.13675">
        <ele>116.135361</ele>
        <time>2017-09-17T09:50:10Z</time>
      </trkpt>
      <trkpt lat="49.21672" lon="1.13748">
        <ele>115.30336</ele>
        <time>2017-09-17T09:50:24Z</time>
      </trkpt>
      <trkpt lat="49.2165" lon="1.13781">
        <ele>115.262512</ele>
        <time>2017-09-17T09:50:30Z</time>
      </trkpt>
      <trkpt lat="49.21625" lon="1.13824">
        <ele>115.398849</ele>
        <time>2017-09-17T09:50:38Z</time>
      </trkpt>
      <trkpt lat="49.21609" lon="1.13857">
        <ele>115.771034</ele>
        <time>2017-09-17T09:50:44Z</time>
      </trkpt>
      <trkpt lat="49.21581" lon="1.1393">
        <ele>117.385338</ele>
        <time>2017-09-17T09:50:58Z</time>
      </trkpt>
      <trkpt lat="49.21569" lon="1.13961">
        <ele>118.131744</ele>
        <time>2017-09-17T09:51:04Z</time>
      </trkpt>
      <trkpt lat="49.21553" lon="1.14005">
        <ele>118.837456</ele>
        <time>2017-09-17T09:51:12Z</time>
      </trkpt>
      <trkpt lat="49.21541" lon="1.14036">
        <ele>119.232132</ele>
        <time>2017-09-17T09:51:18Z</time>
      </trkpt>
      <trkpt lat="49.21511" lon="1.14116">
        <ele>119.591263</ele>
        <time>2017-09-17T09:51:32Z</time>
      </trkpt>
      <trkpt lat="49.21497" lon="1.1415">
        <ele>119.47422</ele>
        <time>2017-09-17T09:51:38Z</time>
      </trkpt>
      <trkpt lat="49.21479" lon="1.14197">
        <ele>119.195824</ele>
        <time>2017-09-17T09:51:46Z</time>
      </trkpt>
      <trkpt lat="49.21465" lon="1.14238">
        <ele>119.244728</ele>
        <time>2017-09-17T09:51:52Z</time>
      </trkpt>
    </trkseg>
  </trk>
</gpx>